Data Archive--March, 2005

Date Time Heat Index Current Temp Wind Chill High Temp Low Temp Humidity Dew Point Wind Speed Gust Wind Direction Rain Barometer
03/01/2005 12:00 a -- 29.6 29.6 29.8 29.4 -- -- 0.0 0.0 --- 0.00 29.351
03/01/2005 12:30 a -- 29.7 29.7 29.8 29.5 -- -- 0.0 0.0 --- 0.00 29.332
03/01/2005 1:00 a -- 29.8 29.8 30.0 29.7 -- -- 0.0 0.0 --- 0.00 29.325
03/01/2005 1:30 a -- 29.9 29.9 30.1 29.8 -- -- 0.0 0.0 --- 0.00 29.329
03/01/2005 2:00 a -- 30.1 30.1 30.3 30.0 -- -- 0.0 0.0 --- 0.00 29.341
03/01/2005 2:30 a -- 30.3 30.3 30.6 30.2 -- -- 0.0 0.0 --- 0.00 29.342
03/01/2005 3:00 a -- 31.0 31.0 31.3 30.4 -- -- 0.0 0.0 --- 0.00 29.325
03/01/2005 3:30 a -- 30.2 30.2 30.5 30.0 -- -- 0.0 0.0 --- 0.00 29.330
03/01/2005 4:00 a -- 30.1 30.1 30.2 29.9 -- -- 0.0 0.0 --- 0.00 29.323
03/01/2005 4:30 a -- 30.1 30.1 30.2 29.9 -- -- 0.0 0.0 --- 0.00 29.320
03/01/2005 5:00 a -- 30.0 30.0 30.1 29.8 -- -- 0.0 0.0 --- 0.00 29.321
03/01/2005 5:30 a -- 30.0 30.0 30.2 29.9 -- -- 0.0 0.0 --- 0.00 29.320
03/01/2005 6:00 a -- 30.0 30.0 30.3 29.8 -- -- 0.0 0.0 --- 0.00 29.322
03/01/2005 6:30 a -- 29.8 29.8 30.0 29.7 -- -- 0.0 0.0 --- 0.00 29.321
03/01/2005 7:00 a -- 30.4 30.4 31.0 29.8 -- -- 0.0 0.0 --- 0.00 29.315
03/01/2005 7:30 a -- 31.4 31.4 31.9 30.9 -- -- 0.0 0.0 --- 0.00 29.320
03/01/2005 8:00 a -- 32.5 32.5 33.3 31.5 -- -- 0.0 0.0 --- 0.00 29.314
03/01/2005 8:30 a -- 33.3 33.3 34.1 32.7 -- -- 0.0 0.0 --- 0.00 29.306
03/01/2005 9:00 a -- 33.7 33.7 34.3 33.2 -- -- 0.0 0.0 --- 0.00 29.302
03/01/2005 9:30 a -- 34.3 34.3 36.2 33.4 -- -- 0.0 0.0 --- 0.00 29.289
03/01/2005 10:00 a -- 35.6 35.6 36.8 34.7 -- -- 0.0 0.0 --- 0.00 29.290
03/01/2005 10:30 a -- 36.5 36.5 37.5 35.6 -- -- 0.0 0.0 --- 0.00 29.290
03/01/2005 11:00 a -- 36.6 36.6 38.2 35.6 -- -- 0.0 1.0 WSW 0.00 29.285
03/01/2005 11:30 a -- 39.4 39.4 44.2 36.1 -- -- 0.0 3.0 SE 0.00 29.270
03/01/2005 12:00 p -- 41.2 41.2 42.7 39.1 -- -- 0.0 4.0 SSE 0.00 29.257
03/01/2005 12:30 p -- 43.0 43.0 45.2 41.1 -- -- 1.0 4.0 SW 0.03 29.246
03/01/2005 1:00 p -- 41.5 41.5 43.2 40.2 -- -- 1.0 5.0 SE 0.03 29.232
03/01/2005 1:30 p -- 41.3 41.3 43.2 40.5 -- -- 0.0 5.0 SSE 0.03 29.229
03/01/2005 2:00 p -- 41.6 41.6 42.9 40.4 -- -- 0.0 6.0 SE 0.03 29.226
03/01/2005 2:30 p -- 40.6 40.6 41.7 39.9 -- -- 1.0 5.0 SE 0.03 29.224
03/01/2005 3:00 p -- 40.8 40.8 41.5 40.1 -- -- 1.0 9.0 SE 0.03 29.229
03/01/2005 3:30 p -- 40.6 40.6 42.6 38.8 -- -- 1.0 6.0 SSE 0.02 29.230
03/01/2005 4:00 p -- 39.5 39.5 40.3 38.8 -- -- 1.0 5.0 SSE 0.02 29.228
03/01/2005 4:30 p -- 38.7 38.7 39.2 37.3 -- -- 1.0 6.0 SSE 0.02 29.243
03/01/2005 5:00 p -- 36.1 36.1 37.4 35.8 -- -- 1.0 6.0 SSE 0.01 29.242
03/01/2005 5:30 p -- 35.8 35.8 36.2 35.4 -- -- 1.0 4.0 SE 0.00 29.249
03/01/2005 6:00 p -- 35.4 35.4 35.6 35.1 -- -- 1.0 6.0 SSE 0.01 29.255
03/01/2005 6:30 p -- 35.5 35.5 36.1 35.1 -- -- 0.0 3.0 S 0.00 29.257
03/01/2005 7:00 p -- 35.7 35.7 36.5 35.3 -- -- 0.0 3.0 SSE 0.00 29.257
03/01/2005 7:30 p -- 35.5 35.5 36.4 35.1 -- -- 1.0 3.0 S 0.00 29.260
03/01/2005 8:00 p -- 35.0 35.0 35.3 34.7 -- -- 0.0 3.0 SSE 0.01 29.263
03/01/2005 8:30 p -- 34.5 34.5 34.9 34.2 -- -- 0.0 3.0 SSE 0.00 29.262
03/01/2005 9:00 p -- 34.4 34.4 34.8 33.9 -- -- 1.0 6.0 SSE 0.00 29.268
03/01/2005 9:30 p -- 34.1 34.1 34.9 33.5 -- -- 1.0 9.0 SE 0.00 29.275
03/01/2005 10:00 p -- 33.8 33.8 34.1 33.5 -- -- 1.0 6.0 SE 0.00 29.271
03/01/2005 10:30 p -- 33.4 33.4 33.7 33.3 -- -- 1.0 4.0 SSE 0.00 29.267
03/01/2005 11:00 p -- 33.6 33.6 33.8 33.5 -- -- 1.0 6.0 SSE 0.00 29.258
03/01/2005 11:30 p -- 33.2 33.2 33.6 32.5 -- -- 1.0 5.0 SE 0.00 29.255
03/02/2005 12:00 a -- 32.7 32.7 33.2 32.5 -- -- 1.0 7.0 SE 0.00 29.260
03/02/2005 12:30 a -- 32.6 32.6 32.7 32.4 -- -- 1.0 4.0 SE 0.00 29.261
03/02/2005 1:00 a -- 32.2 32.2 32.6 31.7 -- -- 1.0 5.0 SSE 0.00 29.268
03/02/2005 1:30 a -- 31.6 31.6 32.0 31.4 -- -- 1.0 5.0 S 0.00 29.269
03/02/2005 2:00 a -- 31.4 31.4 31.6 31.1 -- -- 0.0 4.0 S 0.00 29.275
03/02/2005 2:30 a -- 31.3 31.3 31.5 31.1 -- -- 0.0 3.0 SE 0.00 29.269
03/02/2005 3:00 a -- 31.2 31.2 31.5 31.0 -- -- 1.0 4.0 SE 0.00 29.285
03/02/2005 3:30 a -- 31.8 31.8 32.1 31.5 -- -- 2.0 9.0 SE 0.00 29.311
03/02/2005 4:00 a -- 31.1 31.1 31.9 30.5 -- -- 4.0 16.0 SE 0.00 29.336
03/02/2005 4:30 a -- 30.8 30.8 31.0 30.5 -- -- 2.0 8.0 SE 0.00 29.352
03/02/2005 5:00 a -- 30.7 30.7 31.1 30.5 -- -- 1.0 7.0 SE 0.00 29.366
03/02/2005 5:30 a -- 30.7 30.7 31.1 30.4 -- -- 2.0 8.0 SE 0.00 29.379
03/02/2005 6:00 a -- 30.4 30.4 30.7 29.9 -- -- 2.0 7.0 SE 0.00 29.386
03/02/2005 6:30 a -- 30.1 30.1 30.3 29.9 -- -- 3.0 10.0 SE 0.00 29.398
03/02/2005 7:00 a -- 30.4 30.4 30.6 30.2 -- -- 2.0 6.0 SE 0.00 29.407
03/02/2005 7:30 a -- 30.7 30.7 30.9 30.3 -- -- 2.0 7.0 SE 0.00 29.420
03/02/2005 8:00 a -- 31.8 31.8 33.0 30.9 -- -- 3.0 10.0 SE 0.00 29.424
03/02/2005 8:30 a -- 33.5 33.5 34.9 32.4 -- -- 3.0 9.0 SE 0.00 29.426
03/02/2005 9:00 a -- 36.1 36.1 37.7 34.9 -- -- 3.0 10.0 SE 0.00 29.432
03/02/2005 9:30 a -- 36.8 36.8 37.3 36.2 -- -- 3.0 11.0 SE 0.00 29.434
03/02/2005 10:00 a -- 37.8 37.8 39.0 36.7 -- -- 2.0 15.0 SE 0.01 29.439
03/02/2005 10:30 a -- 38.0 38.0 40.9 36.0 -- -- 1.0 8.0 SSE 0.01 29.438
03/02/2005 11:00 a -- 39.0 39.0 40.6 38.0 -- -- 2.0 9.0 SE 0.00 29.444
03/02/2005 11:30 a -- 41.3 41.3 43.4 39.5 -- -- 3.0 10.0 SE 0.02 29.437
03/02/2005 12:00 p -- 41.0 41.0 42.3 39.7 -- -- 3.0 8.0 SE 0.01 29.429
03/02/2005 12:30 p -- 40.6 40.6 42.5 38.0 -- -- 3.0 10.0 SE 0.03 29.418
03/02/2005 1:00 p -- 40.9 40.9 42.2 39.7 -- -- 3.0 10.0 SE 0.02 29.417
03/02/2005 1:30 p -- 41.4 41.4 42.6 40.4 -- -- 3.0 10.0 SE 0.00 29.411
03/02/2005 2:00 p -- 40.4 40.4 41.3 38.9 -- -- 3.0 14.0 SE 0.01 29.407
03/02/2005 2:30 p -- 39.6 39.6 41.1 38.5 -- -- 3.0 9.0 SE 0.00 29.416
03/02/2005 3:00 p -- 38.9 38.9 39.5 37.9 -- -- 3.0 10.0 SE 0.01 29.431
03/02/2005 3:30 p -- 40.7 40.7 42.1 39.1 -- -- 2.0 11.0 SE 0.00 29.437
03/02/2005 4:00 p -- 39.8 39.8 40.8 38.4 -- -- 3.0 9.0 SE 0.00 29.448
03/02/2005 4:30 p -- 37.8 37.8 38.7 36.6 -- -- 3.0 11.0 SE 0.01 29.457
03/02/2005 5:00 p -- 36.1 36.1 36.7 35.5 -- -- 3.0 9.0 SE 0.00 29.464
03/02/2005 5:30 p -- 34.6 34.6 35.6 33.9 -- -- 2.0 10.0 SE 0.00 29.477
03/02/2005 6:00 p -- 33.4 33.4 34.0 32.6 -- -- 3.0 13.0 SE 0.00 29.488
03/02/2005 6:30 p -- 32.3 32.3 33.0 32.0 -- -- 2.0 9.0 SE 0.00 29.501
03/02/2005 7:00 p -- 31.7 31.7 32.1 31.4 -- -- 2.0 7.0 SE 0.00 29.503
03/02/2005 7:30 p -- 31.4 31.4 31.7 31.0 -- -- 2.0 8.0 SE 0.00 29.511
03/02/2005 8:00 p -- 30.9 30.9 31.2 30.4 -- -- 3.0 10.0 SE 0.00 29.524
03/02/2005 8:30 p -- 30.2 30.2 30.7 29.7 -- -- 3.0 12.0 SE 0.00 29.531
03/02/2005 9:00 p -- 29.8 29.8 30.0 29.6 -- -- 2.0 8.0 SE 0.00 29.535
03/02/2005 9:30 p -- 29.6 29.6 30.0 29.3 -- -- 2.0 6.0 SE 0.00 29.538
03/02/2005 10:00 p -- 29.3 29.3 29.6 29.1 -- -- 1.0 6.0 SE 0.00 29.536
03/02/2005 10:30 p -- 28.9 28.9 29.4 28.3 -- -- 2.0 7.0 SE 0.00 29.538
03/02/2005 11:00 p -- 28.3 28.3 28.7 27.9 -- -- 2.0 7.0 SE 0.00 29.544
03/02/2005 11:30 p -- 27.8 27.8 28.6 27.3 -- -- 1.0 5.0 SE 0.00 29.550
03/03/2005 12:00 a -- 27.5 27.5 27.9 27.3 -- -- 1.0 5.0 SE 0.00 29.562
03/03/2005 12:30 a -- 27.7 27.7 28.0 27.3 -- -- 4.0 13.0 SE 0.00 29.568
03/03/2005 1:00 a -- 27.5 27.5 27.8 27.0 -- -- 3.0 11.0 SE 0.00 29.575
03/03/2005 1:30 a -- 27.1 27.1 27.4 26.7 -- -- 3.0 10.0 SE 0.00 29.581
03/03/2005 2:00 a -- 26.7 26.7 27.0 26.4 -- -- 2.0 9.0 SE 0.00 29.579
03/03/2005 2:30 a -- 26.3 26.3 26.7 25.7 -- -- 3.0 8.0 SE 0.00 29.578
03/03/2005 3:00 a -- 25.6 25.6 26.1 25.3 -- -- 2.0 10.0 SE 0.00 29.585
03/03/2005 3:30 a -- 25.0 25.0 25.6 24.5 -- -- 3.0 9.0 SE 0.00 29.598
03/03/2005 4:00 a -- 24.5 24.5 24.8 24.1 -- -- 3.0 10.0 SE 0.00 29.608
03/03/2005 4:30 a -- 23.9 23.9 24.2 23.8 -- -- 2.0 11.0 SE 0.00 29.624
03/03/2005 5:00 a -- 23.7 23.7 24.0 23.4 -- -- 3.0 12.0 SE 0.00 29.634
03/03/2005 5:30 a -- 23.3 23.3 23.8 23.0 -- -- 3.0 10.0 SE 0.00 29.637
03/03/2005 6:00 a -- 23.4 23.4 24.4 22.8 -- -- 2.0 11.0 SE 0.00 29.664
03/03/2005 6:30 a -- 22.4 22.4 22.9 22.2 -- -- 1.0 9.0 SE 0.00 29.675
03/03/2005 7:00 a -- 22.8 22.8 23.5 22.1 -- -- 2.0 7.0 SE 0.00 29.675
03/03/2005 7:30 a -- 23.6 23.6 24.2 23.2 -- -- 2.0 8.0 SE 0.00 29.689
03/03/2005 8:00 a -- 25.2 25.2 26.4 24.1 -- -- 3.0 8.0 SE 0.00 29.690
03/03/2005 8:30 a -- 27.1 27.1 28.3 26.4 -- -- 3.0 9.0 SE 0.00 29.698
03/03/2005 9:00 a -- 28.1 28.1 28.9 27.4 -- -- 3.0 11.0 SE 0.00 29.690
03/03/2005 9:30 a -- 28.3 24.8 29.7 27.5 -- -- 5.0 14.0 SE 0.00 29.688
03/03/2005 10:00 a -- 29.5 26.1 30.1 29.0 -- -- 5.0 15.0 SE 0.00 29.676
03/03/2005 10:30 a -- 29.7 24.0 30.3 28.8 -- -- 6.0 19.0 SE 0.00 29.681
03/03/2005 11:00 a -- 30.5 27.2 31.6 29.2 -- -- 5.0 16.0 SE 0.00 29.677
03/03/2005 11:30 a -- 32.4 32.4 33.5 31.2 -- -- 4.0 17.0 SE 0.00 29.682
03/03/2005 12:00 p -- 33.7 33.7 35.5 32.3 -- -- 4.0 14.0 SE 0.00 29.685
03/03/2005 12:30 p -- 33.7 33.7 34.9 32.7 -- -- 4.0 13.0 SE 0.00 29.684
03/03/2005 1:00 p -- 34.7 34.7 35.7 33.6 -- -- 4.0 15.0 SE 0.00 29.683
03/03/2005 1:30 p -- 34.6 31.5 36.4 33.3 -- -- 5.0 15.0 SE 0.00 29.682
03/03/2005 2:00 p -- 34.6 31.5 35.9 33.1 -- -- 5.0 15.0 SE 0.00 29.689
03/03/2005 2:30 p -- 35.0 35.0 36.2 33.9 -- -- 4.0 12.0 SE 0.00 29.687
03/03/2005 3:00 p -- 34.6 34.6 35.2 33.9 -- -- 4.0 14.0 SE 0.00 29.687
03/03/2005 3:30 p -- 34.6 34.6 35.0 34.2 -- -- 4.0 12.0 SE 0.00 29.683
03/03/2005 4:00 p -- 34.3 34.3 34.7 34.0 -- -- 4.0 12.0 SE 0.00 29.688
03/03/2005 4:30 p -- 33.6 33.6 34.2 33.2 -- -- 4.0 11.0 SE 0.00 29.696
03/03/2005 5:00 p -- 32.8 32.8 33.3 32.4 -- -- 3.0 11.0 SE 0.00 29.709
03/03/2005 5:30 p -- 32.1 32.1 32.8 31.8 -- -- 3.0 10.0 SE 0.00 29.721
03/03/2005 6:00 p -- 31.2 31.2 31.8 30.7 -- -- 2.0 9.0 SE 0.00 29.733
03/03/2005 6:30 p -- 30.5 30.5 31.0 30.0 -- -- 2.0 8.0 SE 0.00 29.735
03/03/2005 7:00 p -- 29.8 29.8 30.7 28.7 -- -- 1.0 6.0 SE 0.00 29.749
03/03/2005 7:30 p -- 29.2 29.2 30.1 28.5 -- -- 1.0 7.0 SE 0.00 29.761
03/03/2005 8:00 p -- 28.3 28.3 29.4 27.6 -- -- 0.0 3.0 SE 0.00 29.772
03/03/2005 8:30 p -- 28.2 28.2 29.3 27.4 -- -- 1.0 5.0 SE 0.00 29.782
03/03/2005 9:00 p -- 28.9 28.9 29.5 28.5 -- -- 1.0 6.0 SE 0.00 29.777
03/03/2005 9:30 p -- 28.1 28.1 28.7 27.4 -- -- 1.0 5.0 SE 0.00 29.789
03/03/2005 10:00 p -- 28.5 28.5 29.1 28.0 -- -- 3.0 9.0 SE 0.00 29.799
03/03/2005 10:30 p -- 28.4 28.4 28.8 27.9 -- -- 2.0 9.0 SE 0.00 29.808
03/03/2005 11:00 p -- 28.1 28.1 28.5 27.7 -- -- 2.0 7.0 SE 0.00 29.821
03/03/2005 11:30 p -- 26.1 26.1 27.7 24.9 -- -- 0.0 5.0 SE 0.00 29.820
03/04/2005 12:00 a -- 26.4 26.4 27.3 25.3 -- -- 2.0 9.0 SE 0.00 29.827
03/04/2005 12:30 a -- 26.0 26.0 26.9 24.7 -- -- 1.0 5.0 SE 0.00 29.830
03/04/2005 1:00 a -- 25.0 25.0 25.6 24.6 -- -- 1.0 4.0 SE 0.00 29.826
03/04/2005 1:30 a -- 24.2 24.2 25.3 23.2 -- -- 0.0 3.0 SE 0.00 29.829
03/04/2005 2:00 a -- 23.3 23.3 23.7 23.0 -- -- 0.0 3.0 ENE 0.00 29.827
03/04/2005 2:30 a -- 22.8 22.8 23.5 22.6 -- -- 0.0 2.0 ENE 0.00 29.824
03/04/2005 3:00 a -- 23.3 23.3 24.0 22.7 -- -- 0.0 4.0 ENE 0.00 29.829
03/04/2005 3:30 a -- 22.0 22.0 22.7 21.2 -- -- 0.0 1.0 ENE 0.00 29.828
03/04/2005 4:00 a -- 20.9 20.9 21.5 20.4 -- -- 0.0 0.0 --- 0.00 29.837
03/04/2005 4:30 a -- 19.9 19.9 20.4 19.5 -- -- 0.0 0.0 --- 0.00 29.848
03/04/2005 5:00 a -- 19.8 19.8 20.1 19.4 -- -- 0.0 1.0 --- 0.00 29.853
03/04/2005 5:30 a -- 20.0 20.0 20.8 19.6 -- -- 0.0 2.0 ENE 0.00 29.858
03/04/2005 6:00 a -- 20.7 20.7 21.6 19.9 -- -- 0.0 3.0 ENE 0.00 29.859
03/04/2005 6:30 a -- 20.8 20.8 21.6 20.2 -- -- 0.0 2.0 ESE 0.00 29.866
03/04/2005 7:00 a -- 20.8 20.8 21.4 20.2 -- -- 0.0 2.0 ENE 0.00 29.866
03/04/2005 7:30 a -- 22.8 22.8 24.3 21.3 -- -- 0.0 3.0 SSE 0.00 29.872
03/04/2005 8:00 a -- 25.5 25.5 26.6 24.2 -- -- 1.0 3.0 SSE 0.00 29.888
03/04/2005 8:30 a -- 27.7 27.7 28.6 26.4 -- -- 1.0 4.0 SE 0.00 29.898
03/04/2005 9:00 a -- 29.1 29.1 30.0 28.0 -- -- 2.0 10.0 SE 0.00 29.890
03/04/2005 9:30 a -- 30.2 30.2 30.8 29.5 -- -- 2.0 8.0 SE 0.00 29.892
03/04/2005 10:00 a -- 31.2 31.2 32.3 29.9 -- -- 2.0 8.0 SE 0.00 29.881
03/04/2005 10:30 a -- 32.6 32.6 33.5 31.3 -- -- 2.0 8.0 SE 0.00 29.880
03/04/2005 11:00 a -- 33.9 33.9 35.3 32.9 -- -- 2.0 8.0 SE 0.00 29.867
03/04/2005 11:30 a -- 35.1 35.1 36.1 34.3 -- -- 2.0 7.0 SE 0.00 29.861
03/04/2005 12:00 p -- 36.2 36.2 37.3 34.9 -- -- 1.0 6.0 SE 0.00 29.845
03/04/2005 12:30 p -- 36.9 36.9 37.8 35.7 -- -- 2.0 10.0 SE 0.00 29.827
03/04/2005 1:00 p -- 37.5 37.5 38.4 36.7 -- -- 2.0 7.0 SE 0.00 29.820
03/04/2005 1:30 p -- 37.5 37.5 38.3 36.5 -- -- 2.0 9.0 SE 0.00 29.807
03/04/2005 2:00 p -- 37.2 37.2 38.1 36.3 -- -- 2.0 10.0 SE 0.00 29.800
03/04/2005 2:30 p -- 36.9 36.9 38.2 35.6 -- -- 2.0 9.0 SE 0.00 29.788
03/04/2005 3:00 p -- 36.4 36.4 37.1 35.7 -- -- 2.0 8.0 SE 0.00 29.784
03/04/2005 3:30 p -- 36.4 36.4 37.1 35.6 -- -- 2.0 6.0 SE 0.00 29.775
03/04/2005 4:00 p -- 35.5 35.5 35.9 35.0 -- -- 1.0 6.0 SE 0.00 29.769
03/04/2005 4:30 p -- 35.4 35.4 35.7 35.1 -- -- 1.0 5.0 S 0.00 29.765
03/04/2005 5:00 p -- 34.3 34.3 35.4 33.2 -- -- 2.0 5.0 SE 0.00 29.761
03/04/2005 5:30 p -- 33.0 33.0 33.5 32.5 -- -- 1.0 4.0 SSE 0.00 29.769
03/04/2005 6:00 p -- 32.1 32.1 32.6 31.4 -- -- 1.0 5.0 SE 0.00 29.778
03/04/2005 6:30 p -- 31.2 31.2 31.6 30.7 -- -- 0.0 1.0 SE 0.00 29.785
03/04/2005 7:00 p -- 30.5 30.5 30.8 30.1 -- -- 0.0 1.0 --- 0.00 29.790
03/04/2005 7:30 p -- 29.8 29.8 30.4 29.4 -- -- 0.0 0.0 --- 0.00 29.791
03/04/2005 8:00 p -- 28.9 28.9 29.6 28.4 -- -- 0.0 0.0 --- 0.00 29.798
03/04/2005 8:30 p -- 28.3 28.3 29.2 27.9 -- -- 0.0 0.0 --- 0.00 29.796
03/04/2005 9:00 p -- 28.6 28.6 29.3 28.2 -- -- 0.0 0.0 --- 0.00 29.799
03/04/2005 9:30 p -- 28.3 28.3 29.3 27.4 -- -- 0.0 0.0 --- 0.00 29.799
03/04/2005 10:00 p -- 27.0 27.0 28.9 26.3 -- -- 0.0 0.0 --- 0.00 29.796
03/04/2005 10:30 p -- 25.3 25.3 26.6 24.5 -- -- 0.0 0.0 --- 0.00 29.784
03/04/2005 11:00 p -- 24.1 24.1 24.5 23.6 -- -- 0.0 0.0 --- 0.00 29.785
03/04/2005 11:30 p -- 23.7 23.7 24.1 23.1 -- -- 0.0 0.0 --- 0.00 29.784
03/05/2005 12:00 a -- 22.8 22.8 23.5 22.4 -- -- 0.0 0.0 --- 0.00 29.781
03/05/2005 12:30 a -- 22.1 22.1 22.5 21.7 -- -- 0.0 0.0 --- 0.00 29.786
03/05/2005 1:00 a -- 22.1 22.1 22.4 21.9 -- -- 0.0 0.0 --- 0.00 29.789
03/05/2005 1:30 a -- 21.6 21.6 22.1 21.3 -- -- 0.0 0.0 --- 0.00 29.799
03/05/2005 2:00 a -- 21.2 21.2 21.7 20.8 -- -- 0.0 0.0 --- 0.00 29.793
03/05/2005 2:30 a -- 20.5 20.5 21.1 19.8 -- -- 0.0 0.0 --- 0.00 29.790
03/05/2005 3:00 a -- 19.7 19.7 20.0 19.3 -- -- 0.0 0.0 --- 0.00 29.782
03/05/2005 3:30 a -- 19.5 19.5 19.9 18.8 -- -- 0.0 0.0 --- 0.00 29.778
03/05/2005 4:00 a -- 18.7 18.7 19.2 18.3 -- -- 0.0 0.0 --- 0.00 29.781
03/05/2005 4:30 a -- 18.4 18.4 18.7 18.2 -- -- 0.0 0.0 --- 0.00 29.784
03/05/2005 5:00 a -- 18.0 18.0 18.4 17.5 -- -- 0.0 0.0 --- 0.00 29.796
03/05/2005 5:30 a -- 17.8 17.8 18.8 17.5 -- -- 0.0 0.0 --- 0.00 29.799
03/05/2005 6:00 a -- 18.2 18.2 20.4 17.4 -- -- 0.0 0.0 --- 0.00 29.800
03/05/2005 6:30 a -- 17.7 17.7 18.3 17.2 -- -- 0.0 0.0 --- 0.00 29.802
03/05/2005 7:00 a -- 18.5 18.5 20.1 17.8 -- -- 0.0 0.0 --- 0.00 29.803
03/05/2005 7:30 a -- 21.0 21.0 23.1 18.9 -- -- 0.0 0.0 --- 0.00 29.806
03/05/2005 8:00 a -- 27.8 27.8 30.6 23.2 -- -- 0.0 4.0 SE 0.00 29.810
03/05/2005 8:30 a -- 31.8 31.8 32.9 30.4 -- -- 1.0 3.0 SSW 0.00 29.826
03/05/2005 9:00 a -- 33.9 33.9 35.2 32.4 -- -- 1.0 4.0 SSW 0.00 29.833
03/05/2005 9:30 a -- 35.1 35.1 35.7 34.6 -- -- 1.0 4.0 SSW 0.00 29.824
03/05/2005 10:00 a -- 36.2 36.2 37.2 35.2 -- -- 1.0 5.0 SSW 0.00 29.809
03/05/2005 10:30 a -- 37.7 37.7 38.4 36.7 -- -- 1.0 5.0 SSE 0.00 29.806
03/05/2005 11:00 a -- 39.1 39.1 40.1 38.0 -- -- 2.0 7.0 SE 0.00 29.807
03/05/2005 11:30 a -- 40.4 40.4 41.5 39.3 -- -- 2.0 7.0 SE 0.00 29.796
03/05/2005 12:00 p -- 41.1 41.1 42.3 40.4 -- -- 1.0 10.0 SE 0.00 29.781
03/05/2005 12:30 p -- 41.6 41.6 42.2 40.8 -- -- 2.0 6.0 SE 0.01 29.764
03/05/2005 1:00 p -- 42.4 42.4 43.3 41.7 -- -- 2.0 7.0 SE 0.00 29.747
03/05/2005 1:30 p -- 42.6 42.6 43.3 42.0 -- -- 2.0 9.0 SE 0.00 29.735
03/05/2005 2:00 p -- 42.5 42.5 43.2 42.0 -- -- 3.0 8.0 SE 0.00 29.721
03/05/2005 2:30 p -- 42.7 42.7 43.3 41.9 -- -- 1.0 7.0 SSW 0.00 29.715
03/05/2005 3:00 p -- 42.6 42.6 43.3 42.1 -- -- 2.0 9.0 SE 0.00 29.711
03/05/2005 3:30 p -- 42.3 42.3 42.8 41.9 -- -- 2.0 6.0 SE 0.00 29.705
03/05/2005 4:00 p -- 42.0 42.0 42.3 41.6 -- -- 2.0 7.0 SE 0.00 29.702
03/05/2005 4:30 p -- 41.7 41.7 42.1 41.2 -- -- 1.0 7.0 SE 0.00 29.713
03/05/2005 5:00 p -- 41.1 41.1 41.4 40.5 -- -- 1.0 5.0 SE 0.00 29.721
03/05/2005 5:30 p -- 40.1 40.1 40.7 38.9 -- -- 1.0 5.0 SE 0.00 29.728
03/05/2005 6:00 p -- 38.2 38.2 39.3 36.8 -- -- 0.0 2.0 SE 0.00 29.733
03/05/2005 6:30 p -- 36.0 36.0 36.8 35.0 -- -- 0.0 0.0 --- 0.00 29.742
03/05/2005 7:00 p -- 34.3 34.3 35.1 33.7 -- -- 0.0 0.0 --- 0.00 29.758
03/05/2005 7:30 p -- 34.1 34.1 34.7 33.6 -- -- 0.0 0.0 --- 0.00 29.760
03/05/2005 8:00 p -- 33.3 33.3 33.9 32.8 -- -- 0.0 0.0 --- 0.00 29.765
03/05/2005 8:30 p -- 32.7 32.7 33.3 32.1 -- -- 0.0 2.0 SE 0.00 29.768
03/05/2005 9:00 p -- 32.7 32.7 33.3 32.4 -- -- 0.0 0.0 --- 0.00 29.776
03/05/2005 9:30 p -- 31.7 31.7 32.6 31.1 -- -- 0.0 0.0 --- 0.00 29.778
03/05/2005 10:00 p -- 31.1 31.1 31.8 29.8 -- -- 0.0 0.0 --- 0.00 29.773
03/05/2005 10:30 p -- 29.4 29.4 30.0 28.8 -- -- 0.0 0.0 --- 0.00 29.769
03/05/2005 11:00 p -- 28.8 28.8 29.0 28.6 -- -- 0.0 0.0 --- 0.00 29.769
03/05/2005 11:30 p -- 28.2 28.2 28.7 27.5 -- -- 0.0 0.0 --- 0.00 29.765
03/06/2005 12:00 a -- 27.4 27.4 27.7 27.0 -- -- 0.0 0.0 --- 0.00 29.762
03/06/2005 12:30 a -- 26.6 26.6 27.1 26.0 -- -- 0.0 0.0 --- 0.00 29.767
03/06/2005 1:00 a -- 26.1 26.1 26.5 25.7 -- -- 0.0 0.0 --- 0.00 29.768
03/06/2005 1:30 a -- 26.3 26.3 26.6 25.7 -- -- 0.0 0.0 --- 0.00 29.771
03/06/2005 2:00 a -- 26.2 26.2 26.6 25.9 -- -- 0.0 0.0 --- 0.00 29.769
03/06/2005 2:30 a -- 26.0 26.0 26.4 25.6 -- -- 0.0 0.0 --- 0.00 29.770
03/06/2005 3:00 a -- 25.9 25.9 26.3 25.6 -- -- 0.0 0.0 --- 0.00 29.770
03/06/2005 3:30 a -- 25.4 25.4 26.0 24.9 -- -- 0.0 0.0 --- 0.00 29.775
03/06/2005 4:00 a -- 24.3 24.3 24.9 23.8 -- -- 0.0 0.0 --- 0.00 29.772
03/06/2005 4:30 a -- 23.8 23.8 24.2 23.5 -- -- 0.0 0.0 --- 0.00 29.763
03/06/2005 5:00 a -- 24.1 24.1 24.5 23.7 -- -- 0.0 0.0 --- 0.00 29.772
03/06/2005 5:30 a -- 23.7 23.7 24.4 23.1 -- -- 0.0 0.0 --- 0.00 29.771
03/06/2005 6:00 a -- 23.0 23.0 23.4 22.9 -- -- 0.0 0.0 --- 0.00 29.771
03/06/2005 6:30 a -- 22.8 22.8 23.1 22.4 -- -- 0.0 0.0 --- 0.00 29.770
03/06/2005 7:00 a -- 24.4 24.4 26.0 23.0 -- -- 0.0 0.0 --- 0.00 29.785
03/06/2005 7:30 a -- 27.8 27.8 29.4 26.1 -- -- 0.0 1.0 SE 0.00 29.787
03/06/2005 8:00 a -- 31.3 31.3 32.5 29.4 -- -- 0.0 3.0 SE 0.00 29.781
03/06/2005 8:30 a -- 34.7 34.7 36.7 32.5 -- -- 1.0 4.0 SSE 0.00 29.773
03/06/2005 9:00 a -- 37.7 37.7 39.2 35.9 -- -- 1.0 4.0 SE 0.00 29.754
03/06/2005 9:30 a -- 39.8 39.8 41.6 38.2 -- -- 1.0 4.0 SE 0.00 29.738
03/06/2005 10:00 a -- 41.7 41.7 42.6 40.3 -- -- 1.0 6.0 SE 0.00 29.713
03/06/2005 10:30 a -- 42.6 42.6 43.8 41.2 -- -- 1.0 4.0 S 0.00 29.709
03/06/2005 11:00 a -- 43.7 43.7 45.6 42.5 -- -- 0.0 5.0 SE 0.00 29.682
03/06/2005 11:30 a -- 45.2 45.2 46.3 43.9 -- -- 1.0 6.0 SSE 0.00 29.656
03/06/2005 12:00 p -- 45.2 45.2 46.5 43.7 -- -- 1.0 6.0 SSE 0.00 29.624
03/06/2005 12:30 p -- 46.4 46.4 47.8 45.4 -- -- 2.0 5.0 SE 0.00 29.585
03/06/2005 1:00 p -- 44.7 44.7 45.9 43.9 -- -- 1.0 5.0 SSE 0.00 29.567
03/06/2005 1:30 p -- 46.0 46.0 47.1 44.8 -- -- 1.0 4.0 SSE 0.00 29.532
03/06/2005 2:00 p -- 46.9 46.9 47.7 46.0 -- -- 1.0 6.0 SE 0.00 29.501
03/06/2005 2:30 p -- 47.6 47.6 48.7 46.5 -- -- 2.0 6.0 SSE 0.00 29.492
03/06/2005 3:00 p -- 47.6 47.6 49.2 45.9 -- -- 1.0 5.0 SSE 0.00 29.488
03/06/2005 3:30 p -- 48.7 48.7 49.6 47.2 -- -- 2.0 8.0 SSE 0.00 29.486
03/06/2005 4:00 p -- 47.0 47.0 47.4 46.5 -- -- 1.0 5.0 SSE 0.00 29.487
03/06/2005 4:30 p -- 46.8 46.8 47.2 46.4 -- -- 1.0 5.0 SSE 0.00 29.484
03/06/2005 5:00 p -- 46.5 46.5 47.1 46.1 -- -- 1.0 4.0 SSE 0.00 29.487
03/06/2005 5:30 p -- 45.9 45.9 46.4 45.2 -- -- 0.0 4.0 SW 0.00 29.498
03/06/2005 6:00 p -- 45.4 45.4 45.9 45.0 -- -- 0.0 3.0 SSE 0.00 29.522
03/06/2005 6:30 p -- 44.9 44.9 45.3 44.5 -- -- 0.0 1.0 SSE 0.00 29.534
03/06/2005 7:00 p -- 44.5 44.5 45.1 43.9 -- -- 0.0 3.0 SSE 0.00 29.546
03/06/2005 7:30 p -- 44.1 44.1 45.3 43.3 -- -- 0.0 2.0 SSE 0.00 29.553
03/06/2005 8:00 p -- 45.2 45.2 45.9 44.5 -- -- 0.0 4.0 SSE 0.00 29.556
03/06/2005 8:30 p -- 45.4 45.4 46.0 44.6 -- -- 0.0 3.0 SE 0.00 29.566
03/06/2005 9:00 p -- 43.8 43.8 44.6 43.3 -- -- 0.0 1.0 --- 0.00 29.570
03/06/2005 9:30 p -- 44.2 44.2 44.5 43.9 -- -- 0.0 4.0 SE 0.00 29.578
03/06/2005 10:00 p -- 43.5 43.5 44.1 43.0 -- -- 0.0 0.0 --- 0.00 29.580
03/06/2005 10:30 p -- 42.8 42.8 43.7 42.3 -- -- 0.0 1.0 ESE 0.00 29.582
03/06/2005 11:00 p -- 44.1 44.1 44.7 43.6 -- -- 0.0 4.0 ESE 0.00 29.587
03/06/2005 11:30 p -- 43.4 43.4 44.3 42.2 -- -- 0.0 3.0 SE 0.00 29.590
03/07/2005 12:00 a -- 40.4 40.4 42.2 38.9 -- -- 0.0 0.0 --- 0.00 29.596
03/07/2005 12:30 a -- 38.2 38.2 38.9 37.2 -- -- 0.0 0.0 --- 0.00 29.595
03/07/2005 1:00 a -- 37.2 37.2 38.7 35.7 -- -- 0.0 0.0 --- 0.00 29.607
03/07/2005 1:30 a -- 35.3 35.3 35.9 34.8 -- -- 0.0 0.0 --- 0.00 29.621
03/07/2005 2:00 a -- 34.1 34.1 35.1 33.7 -- -- 0.0 0.0 --- 0.00 29.624
03/07/2005 2:30 a -- 33.5 33.5 34.0 33.0 -- -- 0.0 0.0 --- 0.00 29.634
03/07/2005 3:00 a -- 32.7 32.7 33.1 32.2 -- -- 0.0 0.0 --- 0.00 29.639
03/07/2005 3:30 a -- 32.2 32.2 32.4 31.9 -- -- 0.0 0.0 --- 0.00 29.637
03/07/2005 4:00 a -- 31.6 31.6 31.9 31.3 -- -- 0.0 0.0 --- 0.00 29.641
03/07/2005 4:30 a -- 31.9 31.9 32.1 31.7 -- -- 0.0 0.0 --- 0.00 29.660
03/07/2005 5:00 a -- 31.6 31.6 31.9 31.3 -- -- 0.0 0.0 --- 0.00 29.640
03/07/2005 5:30 a -- 31.3 31.3 31.7 30.9 -- -- 0.0 0.0 --- 0.00 29.637
03/07/2005 6:00 a -- 32.8 32.8 33.9 31.6 -- -- 0.0 0.0 --- 0.00 29.636
03/07/2005 6:30 a -- 33.6 33.6 33.9 33.4 -- -- 0.0 0.0 --- 0.00 29.634
03/07/2005 7:00 a -- 33.9 33.9 34.1 33.5 -- -- 0.0 0.0 --- 0.00 29.633
03/07/2005 7:30 a -- 34.9 34.9 36.2 34.1 -- -- 0.0 0.0 --- 0.00 29.626
03/07/2005 8:00 a -- 37.5 37.5 38.7 36.1 -- -- 0.0 0.0 --- 0.00 29.625
03/07/2005 8:30 a -- 40.6 40.6 43.6 38.5 -- -- 0.0 1.0 N 0.00 29.616
03/07/2005 9:00 a -- 44.6 44.6 46.0 43.5 -- -- 0.0 2.0 N 0.00 29.601
03/07/2005 9:30 a -- 48.2 48.2 50.2 45.5 -- -- 0.0 2.0 N 0.00 29.582
03/07/2005 10:00 a -- 52.0 52.0 53.8 50.1 -- -- 0.0 3.0 N 0.00 29.575
03/07/2005 10:30 a -- 53.5 53.5 55.3 52.8 -- -- 0.0 4.0 N 0.00 29.558
03/07/2005 11:00 a -- 56.4 56.4 57.6 54.9 -- -- 1.0 4.0 SE 0.00 29.540
03/07/2005 11:30 a -- 58.8 58.8 60.9 57.0 -- -- 0.0 3.0 SSE 0.00 29.518
03/07/2005 12:00 p -- 61.2 61.2 62.4 60.6 -- -- 1.0 5.0 N 0.00 29.499
03/07/2005 12:30 p -- 61.9 61.9 62.4 61.4 -- -- 1.0 5.0 N 0.00 29.473
03/07/2005 1:00 p -- 62.9 62.9 63.9 62.3 -- -- 1.0 6.0 N 0.00 29.438
03/07/2005 1:30 p -- 64.1 64.1 65.5 63.2 -- -- 1.0 7.0 N 0.00 29.407
03/07/2005 2:00 p -- 65.0 65.0 66.0 64.2 -- -- 2.0 6.0 N 0.00 29.374
03/07/2005 2:30 p -- 65.5 65.5 66.7 64.0 -- -- 2.0 7.0 N 0.00 29.355
03/07/2005 3:00 p -- 65.1 65.1 65.9 64.3 -- -- 2.0 9.0 N 0.00 29.327
03/07/2005 3:30 p -- 64.7 64.7 65.1 64.3 -- -- 2.0 5.0 N 0.00 29.310
03/07/2005 4:00 p -- 64.1 64.1 64.7 63.5 -- -- 1.0 6.0 N 0.00 29.298
03/07/2005 4:30 p -- 62.9 62.9 63.9 62.2 -- -- 1.0 5.0 N 0.00 29.284
03/07/2005 5:00 p -- 62.2 62.2 62.8 61.2 -- -- 1.0 6.0 N 0.00 29.276
03/07/2005 5:30 p -- 59.9 59.9 61.5 58.2 -- -- 1.0 5.0 N 0.00 29.289
03/07/2005 6:00 p -- 57.3 57.3 58.2 55.9 -- -- 1.0 5.0 N 0.00 29.271
03/07/2005 6:30 p -- 55.2 55.2 56.1 54.2 -- -- 0.0 4.0 N 0.00 29.285
03/07/2005 7:00 p -- 54.1 54.1 54.6 53.5 -- -- 0.0 4.0 NNE 0.00 29.283
03/07/2005 7:30 p -- 52.9 52.9 53.4 52.3 -- -- 0.0 4.0 N 0.00 29.278
03/07/2005 8:00 p -- 51.1 51.1 52.3 50.0 -- -- 0.0 2.0 N 0.00 29.280
03/07/2005 8:30 p -- 49.9 49.9 50.2 49.2 -- -- 0.0 2.0 N 0.00 29.267
03/07/2005 9:00 p -- 48.8 48.8 49.6 48.4 -- -- 0.0 1.0 N 0.00 29.255
03/07/2005 9:30 p -- 47.4 47.4 48.5 46.7 -- -- 0.0 0.0 --- 0.00 29.250
03/07/2005 10:00 p -- 46.9 46.9 47.4 46.4 -- -- 0.0 0.0 --- 0.00 29.245
03/07/2005 10:30 p -- 46.7 46.7 47.1 46.4 -- -- 0.0 0.0 --- 0.00 29.234
03/07/2005 11:00 p -- 47.7 47.7 48.6 46.8 -- -- 0.0 0.0 --- 0.00 29.209
03/07/2005 11:30 p -- 48.7 48.7 49.3 48.2 -- -- 0.0 0.0 --- 0.00 29.203
03/08/2005 12:00 a -- 49.3 49.3 49.7 49.0 -- -- 0.0 1.0 --- 0.00 29.177
03/08/2005 12:30 a -- 48.6 48.6 49.2 47.8 -- -- 0.0 0.0 --- 0.00 29.157
03/08/2005 1:00 a -- 47.7 47.7 48.8 47.3 -- -- 0.0 0.0 --- 0.00 29.139
03/08/2005 1:30 a -- 48.7 48.7 49.2 48.2 -- -- 0.0 0.0 --- 0.00 29.125
03/08/2005 2:00 a -- 48.7 48.7 49.3 48.3 -- -- 0.0 0.0 --- 0.00 29.104
03/08/2005 2:30 a -- 49.2 49.2 49.6 48.9 -- -- 0.0 0.0 --- 0.00 29.076
03/08/2005 3:00 a -- 49.3 49.3 49.6 49.1 -- -- 0.0 0.0 --- 0.00 29.061
03/08/2005 3:30 a -- 50.1 50.1 50.6 49.3 -- -- 0.0 0.0 --- 0.00 29.048
03/08/2005 4:00 a -- 49.9 49.9 50.6 49.0 -- -- 0.0 0.0 --- 0.00 29.045
03/08/2005 4:30 a -- 47.4 47.4 48.9 45.9 -- -- 0.0 0.0 --- 0.01 29.055
03/08/2005 5:00 a -- 45.8 45.8 46.0 45.3 -- -- 0.0 0.0 --- 0.03 29.049
03/08/2005 5:30 a -- 45.6 45.6 46.1 45.2 -- -- 0.0 0.0 --- 0.02 29.033
03/08/2005 6:00 a -- 45.7 45.7 46.7 45.2 -- -- 0.0 0.0 --- 0.00 29.022
03/08/2005 6:30 a -- 45.5 45.5 46.6 44.8 -- -- 0.0 0.0 --- 0.00 29.017
03/08/2005 7:00 a -- 46.0 46.0 46.3 45.7 -- -- 0.0 0.0 --- 0.00 29.010
03/08/2005 7:30 a -- 46.0 46.0 46.4 45.5 -- -- 0.0 0.0 --- 0.02 28.999
03/08/2005 8:00 a -- 46.0 46.0 46.7 45.6 -- -- 0.0 0.0 --- 0.02 28.988
03/08/2005 8:30 a -- 47.0 47.0 47.7 46.6 -- -- 0.0 3.0 SSE 0.02 28.972
03/08/2005 9:00 a -- 44.8 44.8 46.8 41.6 -- -- 2.0 8.0 S 0.01 28.973
03/08/2005 9:30 a -- 39.5 39.5 41.7 38.0 -- -- 2.0 12.0 S 0.00 28.988
03/08/2005 10:00 a -- 35.9 35.9 38.0 34.2 -- -- 3.0 11.0 SSW 0.02 28.975
03/08/2005 10:30 a -- 33.0 33.0 34.3 32.1 -- -- 2.0 12.0 SSE 0.01 28.980
03/08/2005 11:00 a -- 31.9 31.9 32.2 31.4 -- -- 3.0 12.0 SE 0.00 28.975
03/08/2005 11:30 a -- 30.8 30.8 31.4 29.7 -- -- 3.0 14.0 SSE 0.00 28.974
03/08/2005 12:00 p -- 29.4 29.4 29.9 28.9 -- -- 3.0 12.0 S 0.00 28.987
03/08/2005 12:30 p -- 28.1 28.1 29.1 26.7 -- -- 4.0 14.0 S 0.00 28.975
03/08/2005 1:00 p -- 26.0 26.0 26.9 25.0 -- -- 4.0 15.0 SSE 0.00 28.975
03/08/2005 1:30 p -- 24.9 24.9 25.5 24.5 -- -- 3.0 17.0 SSE 0.00 28.972
03/08/2005 2:00 p -- 24.7 24.7 25.2 24.0 -- -- 3.0 17.0 SSE 0.00 28.978
03/08/2005 2:30 p -- 24.7 24.7 26.0 24.1 -- -- 4.0 19.0 SSE 0.00 28.996
03/08/2005 3:00 p -- 25.8 25.8 26.3 25.1 -- -- 3.0 14.0 SE 0.00 29.012
03/08/2005 3:30 p -- 25.2 25.2 25.9 24.6 -- -- 4.0 18.0 SSE 0.00 29.019
03/08/2005 4:00 p -- 25.1 25.1 25.6 24.8 -- -- 4.0 15.0 SE 0.00 29.050
03/08/2005 4:30 p -- 25.0 25.0 25.7 24.5 -- -- 4.0 14.0 SE 0.00 29.086
03/08/2005 5:00 p -- 24.5 20.8 25.5 24.0 -- -- 5.0 19.0 SE 0.00 29.118
03/08/2005 5:30 p -- 24.0 17.8 24.6 23.5 -- -- 6.0 21.0 SSE 0.00 29.133
03/08/2005 6:00 p -- 23.3 19.6 23.9 22.8 -- -- 5.0 19.0 SE 0.00 29.171
03/08/2005 6:30 p -- 23.0 19.3 23.3 22.6 -- -- 5.0 23.0 SE 0.00 29.209
03/08/2005 7:00 p -- 22.8 16.5 23.1 22.5 -- -- 6.0 25.0 SE 0.00 29.247
03/08/2005 7:30 p -- 22.3 18.5 22.8 21.4 -- -- 5.0 17.0 SE 0.00 29.272
03/08/2005 8:00 p -- 21.2 17.4 21.5 20.7 -- -- 5.0 21.0 SE 0.00 29.294
03/08/2005 8:30 p -- 20.7 16.8 21.0 20.3 -- -- 5.0 19.0 SE 0.00 29.300
03/08/2005 9:00 p -- 20.6 16.7 20.9 20.4 -- -- 5.0 21.0 SE 0.00 29.328
03/08/2005 9:30 p -- 20.3 16.4 20.7 19.8 -- -- 5.0 18.0 SE 0.00 29.351
03/08/2005 10:00 p -- 19.8 19.8 20.2 19.5 -- -- 4.0 14.0 SE 0.00 29.365
03/08/2005 10:30 p -- 19.5 15.6 19.9 19.1 -- -- 5.0 16.0 SE 0.00 29.391
03/08/2005 11:00 p -- 19.1 19.1 19.5 18.8 -- -- 4.0 13.0 SE 0.00 29.405
03/08/2005 11:30 p -- 18.9 18.9 19.4 18.4 -- -- 4.0 18.0 SE 0.00 29.420
03/09/2005 12:00 a -- 18.6 18.6 19.0 18.3 -- -- 4.0 14.0 SE 0.00 29.441
03/09/2005 12:30 a -- 18.5 18.5 18.9 17.7 -- -- 4.0 23.0 SE 0.00 29.467
03/09/2005 1:00 a -- 17.9 17.9 18.4 17.5 -- -- 3.0 16.0 SE 0.00 29.494
03/09/2005 1:30 a -- 17.5 17.5 18.0 16.8 -- -- 3.0 13.0 SE 0.00 29.503
03/09/2005 2:00 a -- 16.8 16.8 17.3 16.5 -- -- 2.0 9.0 SE 0.00 29.511
03/09/2005 2:30 a -- 16.7 16.7 17.2 16.2 -- -- 3.0 11.0 SE 0.00 29.516
03/09/2005 3:00 a -- 16.4 16.4 16.8 16.0 -- -- 3.0 12.0 SE 0.00 29.521
03/09/2005 3:30 a -- 16.4 16.4 16.7 16.0 -- -- 4.0 14.0 SE 0.00 29.540
03/09/2005 4:00 a -- 16.2 16.2 16.6 15.9 -- -- 3.0 12.0 SE 0.00 29.555
03/09/2005 4:30 a -- 15.8 15.8 16.2 15.5 -- -- 2.0 9.0 SE 0.00 29.570
03/09/2005 5:00 a -- 15.5 15.5 15.9 15.2 -- -- 1.0 7.0 SE 0.00 29.590
03/09/2005 5:30 a -- 15.4 15.4 15.6 15.2 -- -- 1.0 5.0 SE 0.00 29.592
03/09/2005 6:00 a -- 15.8 15.8 16.4 15.4 -- -- 2.0 6.0 SE 0.00 29.608
03/09/2005 6:30 a -- 16.2 16.2 16.8 15.8 -- -- 1.0 6.0 SE 0.00 29.615
03/09/2005 7:00 a -- 17.4 17.4 18.2 16.6 -- -- 2.0 6.0 SE 0.00 29.628
03/09/2005 7:30 a -- 19.5 19.5 20.9 18.1 -- -- 2.0 10.0 SE 0.00 29.635
03/09/2005 8:00 a -- 21.9 21.9 23.5 20.8 -- -- 2.0 10.0 SE 0.00 29.641
03/09/2005 8:30 a -- 23.9 23.9 25.2 22.9 -- -- 3.0 11.0 SE 0.00 29.644
03/09/2005 9:00 a -- 25.6 25.6 26.6 24.2 -- -- 3.0 14.0 SE 0.00 29.649
03/09/2005 9:30 a -- 26.8 26.8 27.8 25.5 -- -- 3.0 12.0 SE 0.00 29.649
03/09/2005 10:00 a -- 28.7 28.7 30.9 27.4 -- -- 3.0 10.0 SE 0.00 29.654
03/09/2005 10:30 a -- 29.3 25.9 31.4 27.0 -- -- 5.0 18.0 SE 0.00 29.650
03/09/2005 11:00 a -- 28.9 25.5 30.9 27.4 -- -- 5.0 18.0 SE 0.00 29.644
03/09/2005 11:30 a -- 29.2 29.2 30.8 27.4 -- -- 4.0 14.0 SE 0.00 29.651
03/09/2005 12:00 p -- 31.1 31.1 33.6 28.4 -- -- 3.0 9.0 SE 0.00 29.644
03/09/2005 12:30 p -- 31.2 31.2 32.9 28.5 -- -- 3.0 13.0 SE 0.00 29.633
03/09/2005 1:00 p -- 32.5 32.5 34.7 30.6 -- -- 3.0 14.0 SE 0.00 29.630
03/09/2005 1:30 p -- 32.4 32.4 33.9 30.6 -- -- 3.0 12.0 SE 0.00 29.621
03/09/2005 2:00 p -- 32.3 32.3 35.3 30.5 -- -- 2.0 10.0 SE 0.00 29.619
03/09/2005 2:30 p -- 33.6 33.6 35.4 30.9 -- -- 2.0 14.0 SE 0.00 29.618
03/09/2005 3:00 p -- 33.3 33.3 35.8 31.3 -- -- 2.0 10.0 SSE 0.00 29.620
03/09/2005 3:30 p -- 32.3 32.3 33.6 31.3 -- -- 2.0 8.0 SE 0.00 29.625
03/09/2005 4:00 p -- 31.2 31.2 32.4 30.1 -- -- 2.0 9.0 SE 0.00 29.634
03/09/2005 4:30 p -- 30.6 30.6 31.4 29.6 -- -- 2.0 10.0 SE 0.00 29.648
03/09/2005 5:00 p -- 30.5 30.5 31.3 29.7 -- -- 2.0 10.0 SE 0.00 29.653
03/09/2005 5:30 p -- 29.5 29.5 30.6 28.4 -- -- 2.0 7.0 SE 0.00 29.659
03/09/2005 6:00 p -- 27.9 27.9 28.7 27.0 -- -- 1.0 7.0 SE 0.00 29.666
03/09/2005 6:30 p -- 27.0 27.0 27.5 26.3 -- -- 1.0 5.0 SSE 0.00 29.677
03/09/2005 7:00 p -- 26.5 26.5 27.3 26.0 -- -- 1.0 11.0 SE 0.00 29.680
03/09/2005 7:30 p -- 25.6 25.6 26.4 25.2 -- -- 0.0 3.0 SE 0.00 29.682
03/09/2005 8:00 p -- 25.3 25.3 26.1 24.7 -- -- 0.0 6.0 ESE 0.00 29.694
03/09/2005 8:30 p -- 24.9 24.9 25.5 24.5 -- -- 0.0 4.0 ESE 0.00 29.701
03/09/2005 9:00 p -- 24.6 24.6 25.2 24.2 -- -- 0.0 5.0 SSE 0.00 29.709
03/09/2005 9:30 p -- 25.0 25.0 25.3 24.4 -- -- 0.0 3.0 ESE 0.00 29.717
03/09/2005 10:00 p -- 24.7 24.7 25.7 23.8 -- -- 0.0 1.0 ESE 0.00 29.719
03/09/2005 10:30 p -- 22.8 22.8 23.8 21.7 -- -- 0.0 0.0 --- 0.00 29.715
03/09/2005 11:00 p -- 21.2 21.2 21.7 20.4 -- -- 0.0 0.0 --- 0.00 29.714
03/09/2005 11:30 p -- 20.2 20.2 20.4 20.0 -- -- 0.0 0.0 --- 0.00 29.706
03/10/2005 12:00 a -- 19.7 19.7 20.0 19.4 -- -- 0.0 0.0 --- 0.00 29.696
03/10/2005 12:30 a -- 19.1 19.1 19.6 18.6 -- -- 0.0 0.0 --- 0.00 29.694
03/10/2005 1:00 a -- 18.6 18.6 19.0 18.1 -- -- 0.0 0.0 --- 0.00 29.687
03/10/2005 1:30 a -- 18.9 18.9 19.2 18.6 -- -- 0.0 0.0 --- 0.00 29.681
03/10/2005 2:00 a -- 18.3 18.3 19.3 17.6 -- -- 0.0 0.0 --- 0.00 29.677
03/10/2005 2:30 a -- 17.6 17.6 18.2 17.2 -- -- 0.0 0.0 --- 0.00 29.672
03/10/2005 3:00 a -- 17.4 17.4 17.6 17.0 -- -- 0.0 0.0 --- 0.00 29.667
03/10/2005 3:30 a -- 17.4 17.4 17.6 17.2 -- -- 0.0 1.0 --- 0.00 29.661
03/10/2005 4:00 a -- 17.0 17.0 17.4 16.6 -- -- 0.0 0.0 --- 0.00 29.669
03/10/2005 4:30 a -- 16.4 16.4 16.8 15.8 -- -- 0.0 0.0 --- 0.00 29.671
03/10/2005 5:00 a -- 15.7 15.7 16.0 15.4 -- -- 0.0 0.0 --- 0.00 29.678
03/10/2005 5:30 a -- 15.3 15.3 15.6 14.9 -- -- 0.0 0.0 --- 0.00 29.687
03/10/2005 6:00 a -- 14.8 14.8 15.0 14.7 -- -- 0.0 0.0 --- 0.00 29.687
03/10/2005 6:30 a -- 14.8 14.8 15.1 14.5 -- -- 0.0 0.0 --- 0.00 29.691
03/10/2005 7:00 a -- 16.2 16.2 17.3 15.0 -- -- 0.0 0.0 --- 0.00 29.702
03/10/2005 7:30 a -- 19.5 19.5 22.1 17.2 -- -- 0.0 2.0 ESE 0.00 29.710
03/10/2005 8:00 a -- 23.8 23.8 25.6 22.1 -- -- 0.0 3.0 ESE 0.00 29.714
03/10/2005 8:30 a -- 26.3 26.3 27.2 25.4 -- -- 1.0 5.0 SE 0.00 29.715
03/10/2005 9:00 a -- 27.8 27.8 28.9 26.8 -- -- 2.0 8.0 SE 0.00 29.712
03/10/2005 9:30 a -- 29.1 29.1 29.6 28.6 -- -- 2.0 7.0 SE 0.00 29.711
03/10/2005 10:00 a -- 30.0 30.0 31.3 28.6 -- -- 2.0 8.0 SE 0.00 29.710
03/10/2005 10:30 a -- 31.5 31.5 33.4 29.9 -- -- 2.0 8.0 SE 0.01 29.696
03/10/2005 11:00 a -- 32.2 32.2 33.7 30.4 -- -- 3.0 8.0 SE 0.00 29.678
03/10/2005 11:30 a -- 33.0 33.0 35.8 31.3 -- -- 2.0 10.0 SE 0.00 29.667
03/10/2005 12:00 p -- 34.7 34.7 36.8 32.1 -- -- 2.0 9.0 SE 0.00 29.666
03/10/2005 12:30 p -- 34.8 34.8 36.8 32.7 -- -- 2.0 9.0 SE 0.00 29.657
03/10/2005 1:00 p -- 36.1 36.1 37.7 34.4 -- -- 2.0 9.0 SE 0.00 29.644
03/10/2005 1:30 p -- 35.7 35.7 37.8 33.9 -- -- 2.0 8.0 SE 0.00 29.629
03/10/2005 2:00 p -- 35.2 35.2 37.7 33.1 -- -- 2.0 8.0 SE 0.00 29.622
03/10/2005 2:30 p -- 37.1 37.1 38.2 35.1 -- -- 2.0 7.0 SE 0.00 29.624
03/10/2005 3:00 p -- 35.5 35.5 37.1 33.0 -- -- 2.0 9.0 SE 0.00 29.615
03/10/2005 3:30 p -- 35.5 35.5 36.9 33.1 -- -- 1.0 7.0 SE 0.00 29.609
03/10/2005 4:00 p -- 35.2 35.2 36.1 34.6 -- -- 2.0 8.0 SE 0.00 29.610
03/10/2005 4:30 p -- 33.1 33.1 34.6 31.7 -- -- 2.0 8.0 SE 0.00 29.614
03/10/2005 5:00 p -- 31.6 31.6 31.9 31.2 -- -- 1.0 6.0 SE 0.00 29.625
03/10/2005 5:30 p -- 31.0 31.0 31.7 30.5 -- -- 1.0 7.0 SE 0.00 29.628
03/10/2005 6:00 p -- 30.3 30.3 30.8 29.5 -- -- 1.0 6.0 SE 0.00 29.635
03/10/2005 6:30 p -- 29.2 29.2 29.7 28.7 -- -- 0.0 3.0 SE 0.00 29.640
03/10/2005 7:00 p -- 27.9 27.9 29.0 27.2 -- -- 0.0 0.0 --- 0.00 29.651
03/10/2005 7:30 p -- 26.8 26.8 27.3 26.4 -- -- 0.0 0.0 --- 0.00 29.650
03/10/2005 8:00 p -- 26.0 26.0 26.4 25.8 -- -- 0.0 0.0 --- 0.00 29.660
03/10/2005 8:30 p -- 26.1 26.1 26.3 25.9 -- -- 0.0 0.0 --- 0.00 29.665
03/10/2005 9:00 p -- 26.7 26.7 27.0 26.3 -- -- 0.0 0.0 --- 0.00 29.675
03/10/2005 9:30 p -- 26.8 26.8 27.0 26.6 -- -- 0.0 0.0 --- 0.00 29.669
03/10/2005 10:00 p -- 27.2 27.2 27.7 26.9 -- -- 0.0 0.0 --- 0.00 29.668
03/10/2005 10:30 p -- 27.3 27.3 27.4 27.0 -- -- 0.0 0.0 --- 0.00 29.678
03/10/2005 11:00 p -- 27.7 27.7 28.0 27.3 -- -- 0.0 0.0 --- 0.00 29.672
03/10/2005 11:30 p -- 28.2 28.2 28.4 28.0 -- -- 0.0 0.0 --- 0.00 29.668
03/11/2005 12:00 a -- 28.0 28.0 28.3 27.7 -- -- 0.0 0.0 --- 0.00 29.667
03/11/2005 12:30 a -- 28.3 28.3 28.7 27.7 -- -- 0.0 0.0 --- 0.00 29.668
03/11/2005 1:00 a -- 28.8 28.8 28.9 28.5 -- -- 0.0 0.0 --- 0.00 29.676
03/11/2005 1:30 a -- 29.1 29.1 29.6 28.7 -- -- 0.0 2.0 ENE 0.00 29.666
03/11/2005 2:00 a -- 29.6 29.6 29.9 29.5 -- -- 0.0 2.0 ENE 0.00 29.662
03/11/2005 2:30 a -- 29.8 29.8 30.0 29.6 -- -- 0.0 2.0 ENE 0.00 29.647
03/11/2005 3:00 a -- 29.7 29.7 29.8 29.5 -- -- 0.0 0.0 --- 0.00 29.634
03/11/2005 3:30 a -- 29.9 29.9 30.1 29.6 -- -- 0.0 0.0 --- 0.00 29.624
03/11/2005 4:00 a -- 29.4 29.4 29.7 29.2 -- -- 0.0 2.0 NE 0.00 29.605
03/11/2005 4:30 a -- 29.8 29.8 30.1 29.4 -- -- 0.0 3.0 NE 0.00 29.598
03/11/2005 5:00 a -- 29.4 29.4 29.9 29.0 -- -- 1.0 5.0 NNE 0.00 29.591
03/11/2005 5:30 a -- 29.3 29.3 30.3 28.6 -- -- 0.0 4.0 N 0.00 29.582
03/11/2005 6:00 a -- 30.2 30.2 31.1 29.5 -- -- 0.0 3.0 N 0.00 29.569
03/11/2005 6:30 a -- 29.1 29.1 29.8 28.8 -- -- 0.0 2.0 N 0.00 29.567
03/11/2005 7:00 a -- 29.7 29.7 30.4 29.3 -- -- 0.0 2.0 N 0.00 29.549
03/11/2005 7:30 a -- 31.4 31.4 32.6 30.3 -- -- 0.0 2.0 N 0.00 29.539
03/11/2005 8:00 a -- 33.7 33.7 34.6 32.4 -- -- 1.0 4.0 NNW 0.00 29.525
03/11/2005 8:30 a -- 34.6 34.6 35.1 34.1 -- -- 1.0 4.0 NNW 0.00 29.508
03/11/2005 9:00 a -- 35.9 35.9 36.8 35.0 -- -- 1.0 5.0 N 0.00 29.495
03/11/2005 9:30 a -- 36.8 36.8 37.3 36.3 -- -- 1.0 7.0 N 0.00 29.488
03/11/2005 10:00 a -- 37.1 37.1 37.9 36.6 -- -- 1.0 5.0 NNW 0.01 29.475
03/11/2005 10:30 a -- 39.3 39.3 42.7 37.0 -- -- 2.0 7.0 NNW 0.00 29.453
03/11/2005 11:00 a -- 41.7 41.7 43.0 40.1 -- -- 2.0 7.0 NNW 0.01 29.427
03/11/2005 11:30 a -- 43.1 43.1 44.3 41.5 -- -- 1.0 7.0 N 0.01 29.414
03/11/2005 12:00 p -- 44.4 44.4 45.5 43.6 -- -- 2.0 6.0 NW 0.00 29.397
03/11/2005 12:30 p -- 45.8 45.8 46.9 44.7 -- -- 1.0 4.0 NW 0.00 29.382
03/11/2005 1:00 p -- 46.7 46.7 48.1 45.5 -- -- 1.0 3.0 N 0.00 29.366
03/11/2005 1:30 p -- 45.9 45.9 46.4 45.1 -- -- 1.0 4.0 WNW 0.00 29.355
03/11/2005 2:00 p -- 47.2 47.2 48.4 45.8 -- -- 0.0 2.0 W 0.00 29.339
03/11/2005 2:30 p -- 48.3 48.3 49.7 47.4 -- -- 0.0 2.0 W 0.00 29.325
03/11/2005 3:00 p -- 49.0 49.0 50.3 48.0 -- -- 0.0 2.0 W 0.00 29.314
03/11/2005 3:30 p -- 49.0 49.0 50.1 47.7 -- -- 0.0 2.0 W 0.00 29.313
03/11/2005 4:00 p -- 46.4 46.4 48.1 44.4 -- -- 1.0 4.0 WNW 0.00 29.314
03/11/2005 4:30 p -- 43.6 43.6 44.6 42.9 -- -- 1.0 3.0 NW 0.00 29.315
03/11/2005 5:00 p -- 42.7 42.7 43.5 41.9 -- -- 0.0 3.0 NW 0.00 29.327
03/11/2005 5:30 p -- 41.4 41.4 42.1 40.6 -- -- 0.0 2.0 W 0.00 29.320
03/11/2005 6:00 p -- 39.6 39.6 40.6 38.9 -- -- 1.0 3.0 W 0.00 29.326
03/11/2005 6:30 p -- 38.7 38.7 39.0 38.3 -- -- 0.0 3.0 W 0.00 29.321
03/11/2005 7:00 p -- 38.0 38.0 38.3 37.8 -- -- 0.0 3.0 W 0.00 29.328
03/11/2005 7:30 p -- 37.5 37.5 38.0 37.1 -- -- 0.0 2.0 W 0.00 29.328
03/11/2005 8:00 p -- 37.4 37.4 38.2 36.9 -- -- 0.0 3.0 W 0.00 29.324
03/11/2005 8:30 p -- 37.2 37.2 38.4 36.3 -- -- 0.0 2.0 W 0.00 29.314
03/11/2005 9:00 p -- 36.6 36.6 37.8 35.8 -- -- 0.0 1.0 --- 0.00 29.324
03/11/2005 9:30 p -- 37.0 37.0 37.9 36.6 -- -- 0.0 2.0 W 0.00 29.317
03/11/2005 10:00 p -- 36.8 36.8 37.3 36.6 -- -- 0.0 2.0 WSW 0.00 29.306
03/11/2005 10:30 p -- 36.9 36.9 37.7 36.7 -- -- 0.0 2.0 WSW 0.00 29.303
03/11/2005 11:00 p -- 37.0 37.0 37.9 36.7 -- -- 0.0 3.0 SE 0.00 29.287
03/11/2005 11:30 p -- 36.8 36.8 37.3 36.2 -- -- 1.0 4.0 SE 0.00 29.282
03/12/2005 12:00 a -- 35.7 35.7 36.4 35.3 -- -- 0.0 3.0 ESE 0.02 29.270
03/12/2005 12:30 a -- 34.9 34.9 35.4 34.5 -- -- 0.0 0.0 --- 0.02 29.258
03/12/2005 1:00 a -- 34.6 34.6 34.9 34.1 -- -- 0.0 3.0 SSW 0.00 29.261
03/12/2005 1:30 a -- 34.1 34.1 34.3 34.0 -- -- 0.0 1.0 SSW 0.00 29.254
03/12/2005 2:00 a -- 34.1 34.1 34.3 33.9 -- -- 0.0 0.0 --- 0.00 29.243
03/12/2005 2:30 a -- 33.9 33.9 34.1 33.8 -- -- 0.0 0.0 --- 0.01 29.228
03/12/2005 3:00 a -- 33.9 33.9 34.1 33.7 -- -- 0.0 0.0 --- 0.00 29.224
03/12/2005 3:30 a -- 34.1 34.1 34.3 33.9 -- -- 0.0 0.0 --- 0.00 29.227
03/12/2005 4:00 a -- 34.4 34.4 34.8 34.0 -- -- 2.0 8.0 SE 0.01 29.243
03/12/2005 4:30 a -- 34.0 34.0 34.1 33.7 -- -- 2.0 10.0 SE 0.00 29.253
03/12/2005 5:00 a -- 33.7 33.7 34.1 33.6 -- -- 1.0 6.0 ESE 0.00 29.265
03/12/2005 5:30 a -- 33.4 33.4 33.7 33.1 -- -- 1.0 5.0 ESE 0.00 29.271
03/12/2005 6:00 a -- 33.0 33.0 33.3 32.6 -- -- 2.0 8.0 ESE 0.00 29.269
03/12/2005 6:30 a -- 32.6 32.6 33.1 32.3 -- -- 2.0 8.0 ESE 0.00 29.281
03/12/2005 7:00 a -- 32.1 32.1 32.5 31.6 -- -- 1.0 5.0 ESE 0.00 29.288
03/12/2005 7:30 a -- 32.0 32.0 33.1 31.5 -- -- 1.0 5.0 ESE 0.00 29.288
03/12/2005 8:00 a -- 33.8 33.8 34.3 33.1 -- -- 2.0 8.0 SE 0.01 29.295
03/12/2005 8:30 a -- 34.6 34.6 35.1 33.9 -- -- 3.0 12.0 SE 0.01 29.297
03/12/2005 9:00 a -- 35.4 35.4 36.5 34.5 -- -- 3.0 11.0 SE 0.01 29.294
03/12/2005 9:30 a -- 36.4 36.4 37.0 35.7 -- -- 3.0 8.0 SE 0.01 29.295
03/12/2005 10:00 a -- 37.4 37.4 38.1 36.7 -- -- 3.0 10.0 SE 0.00 29.289
03/12/2005 10:30 a -- 38.8 38.8 40.0 37.5 -- -- 2.0 9.0 SE 0.00 29.278
03/12/2005 11:00 a -- 40.6 40.6 41.4 39.3 -- -- 2.0 8.0 SE 0.00 29.282
03/12/2005 11:30 a -- 42.0 42.0 42.9 40.9 -- -- 2.0 8.0 SE 0.00 29.280
03/12/2005 12:00 p -- 42.6 42.6 44.1 41.8 -- -- 3.0 9.0 SE 0.00 29.275
03/12/2005 12:30 p -- 44.4 44.4 45.3 43.5 -- -- 2.0 8.0 SE 0.00 29.273
03/12/2005 1:00 p -- 44.5 44.5 46.0 43.5 -- -- 2.0 9.0 SE 0.00 29.275
03/12/2005 1:30 p -- 43.6 43.6 45.8 42.2 -- -- 2.0 8.0 SE 0.00 29.274
03/12/2005 2:00 p -- 47.3 47.3 48.5 45.9 -- -- 2.0 9.0 SE 0.00 29.276
03/12/2005 2:30 p -- 45.7 45.7 46.5 45.0 -- -- 2.0 9.0 SE 0.00 29.292
03/12/2005 3:00 p -- 45.8 45.8 46.6 44.8 -- -- 1.0 6.0 SE 0.00 29.293
03/12/2005 3:30 p -- 45.6 45.6 46.2 45.2 -- -- 1.0 6.0 SE 0.00 29.306
03/12/2005 4:00 p -- 45.1 45.1 45.9 44.2 -- -- 1.0 5.0 SSE 0.00 29.321
03/12/2005 4:30 p -- 45.3 45.3 46.5 44.5 -- -- 1.0 5.0 SE 0.00 29.331
03/12/2005 5:00 p -- 44.2 44.2 45.5 43.2 -- -- 1.0 3.0 SE 0.00 29.349
03/12/2005 5:30 p -- 43.9 43.9 45.3 42.1 -- -- 1.0 6.0 SE 0.00 29.365
03/12/2005 6:00 p -- 41.4 41.4 42.1 40.3 -- -- 1.0 4.0 ESE 0.00 29.394
03/12/2005 6:30 p -- 39.5 39.5 40.3 38.8 -- -- 0.0 2.0 SSE 0.00 29.406
03/12/2005 7:00 p -- 37.9 37.9 38.8 36.6 -- -- 0.0 0.0 --- 0.00 29.424
03/12/2005 7:30 p -- 36.3 36.3 37.0 35.9 -- -- 0.0 0.0 --- 0.00 29.435
03/12/2005 8:00 p -- 35.9 35.9 36.9 34.5 -- -- 0.0 0.0 --- 0.00 29.450
03/12/2005 8:30 p -- 34.1 34.1 36.1 32.7 -- -- 0.0 0.0 --- 0.00 29.460
03/12/2005 9:00 p -- 32.8 32.8 34.6 31.9 -- -- 0.0 0.0 --- 0.00 29.471
03/12/2005 9:30 p -- 32.6 32.6 34.3 31.9 -- -- 0.0 0.0 --- 0.00 29.481
03/12/2005 10:00 p -- 32.4 32.4 32.9 32.1 -- -- 0.0 0.0 --- 0.00 29.490
03/12/2005 10:30 p -- 32.7 32.7 33.2 32.2 -- -- 0.0 0.0 --- 0.00 29.503
03/12/2005 11:00 p -- 32.4 32.4 32.9 32.2 -- -- 0.0 0.0 --- 0.00 29.512
03/12/2005 11:30 p -- 32.4 32.4 32.7 32.1 -- -- 0.0 0.0 --- 0.00 29.518
03/13/2005 12:00 a -- 33.4 33.4 33.7 32.6 -- -- 0.0 0.0 --- 0.00 29.518
03/13/2005 12:30 a -- 32.9 32.9 33.3 32.6 -- -- 0.0 1.0 SSE 0.00 29.531
03/13/2005 1:00 a -- 32.7 32.7 33.1 32.5 -- -- 0.0 1.0 SSE 0.00 29.540
03/13/2005 1:30 a -- 32.8 32.8 33.1 32.3 -- -- 0.0 0.0 --- 0.00 29.537
03/13/2005 2:00 a -- 32.3 32.3 32.8 31.9 -- -- 0.0 1.0 --- 0.00 29.541
03/13/2005 2:30 a -- 31.9 31.9 32.5 31.0 -- -- 0.0 0.0 --- 0.00 29.536
03/13/2005 3:00 a -- 30.6 30.6 31.0 30.4 -- -- 0.0 0.0 --- 0.00 29.534
03/13/2005 3:30 a -- 29.9 29.9 30.5 29.4 -- -- 0.0 0.0 --- 0.00 29.546
03/13/2005 4:00 a -- 29.4 29.4 29.6 29.1 -- -- 0.0 0.0 --- 0.00 29.562
03/13/2005 4:30 a -- 29.1 29.1 29.4 28.8 -- -- 0.0 0.0 --- 0.00 29.574
03/13/2005 5:00 a -- 28.4 28.4 28.9 28.1 -- -- 0.0 0.0 --- 0.00 29.591
03/13/2005 5:30 a -- 28.2 28.2 28.5 27.9 -- -- 0.0 0.0 --- 0.00 29.602
03/13/2005 6:00 a -- 28.5 28.5 29.1 28.2 -- -- 0.0 0.0 --- 0.00 29.613
03/13/2005 6:30 a -- 29.4 29.4 30.3 28.8 -- -- 0.0 0.0 --- 0.00 29.620
03/13/2005 7:00 a -- 30.7 30.7 31.4 30.0 -- -- 0.0 0.0 --- 0.00 29.627
03/13/2005 7:30 a -- 32.6 32.6 33.9 31.2 -- -- 0.0 4.0 SSE 0.00 29.634
03/13/2005 8:00 a -- 35.3 35.3 36.8 33.9 -- -- 1.0 6.0 SSE 0.00 29.644
03/13/2005 8:30 a -- 37.4 37.4 38.5 36.5 -- -- 2.0 7.0 SE 0.00 29.647
03/13/2005 9:00 a -- 38.8 38.8 39.5 37.8 -- -- 2.0 7.0 SE 0.00 29.663
03/13/2005 9:30 a -- 39.7 39.7 40.6 38.8 -- -- 2.0 8.0 SE 0.00 29.660
03/13/2005 10:00 a -- 41.1 41.1 42.1 40.4 -- -- 2.0 7.0 SE 0.00 29.668
03/13/2005 10:30 a -- 42.4 42.4 43.5 41.8 -- -- 2.0 9.0 SE 0.00 29.674
03/13/2005 11:00 a -- 43.5 43.5 44.1 42.7 -- -- 3.0 13.0 SE 0.00 29.675
03/13/2005 11:30 a -- 44.1 44.1 46.0 42.6 -- -- 3.0 13.0 SE 0.00 29.673
03/13/2005 12:00 p -- 45.6 45.6 48.2 42.7 -- -- 3.0 10.0 SE 0.00 29.663
03/13/2005 12:30 p -- 46.2 46.2 47.9 44.0 -- -- 3.0 11.0 SSE 0.00 29.659
03/13/2005 1:00 p -- 45.9 45.9 47.2 45.1 -- -- 3.0 11.0 SE 0.00 29.652
03/13/2005 1:30 p -- 45.7 45.7 47.4 44.8 -- -- 3.0 9.0 SE 0.00 29.658
03/13/2005 2:00 p -- 46.2 46.2 47.2 45.2 -- -- 3.0 11.0 SE 0.00 29.646
03/13/2005 2:30 p -- 45.9 45.9 47.3 45.0 -- -- 3.0 11.0 SE 0.00 29.647
03/13/2005 3:00 p -- 45.1 45.1 46.5 44.5 -- -- 3.0 9.0 SE 0.00 29.661
03/13/2005 3:30 p -- 43.9 43.9 45.0 43.0 -- -- 3.0 8.0 SE 0.00 29.660
03/13/2005 4:00 p -- 44.3 44.3 45.8 43.4 -- -- 3.0 9.0 SE 0.00 29.665
03/13/2005 4:30 p -- 43.1 43.1 43.6 42.7 -- -- 2.0 7.0 SE 0.00 29.677
03/13/2005 5:00 p -- 42.5 42.5 43.0 42.1 -- -- 2.0 8.0 SE 0.00 29.678
03/13/2005 5:30 p -- 41.7 41.7 42.4 40.9 -- -- 2.0 7.0 SE 0.00 29.689
03/13/2005 6:00 p -- 40.2 40.2 41.0 39.5 -- -- 1.0 4.0 SE 0.00 29.703
03/13/2005 6:30 p -- 39.0 39.0 39.6 38.6 -- -- 0.0 3.0 SE 0.00 29.716
03/13/2005 7:00 p -- 38.4 38.4 39.1 38.0 -- -- 0.0 1.0 SE 0.00 29.719
03/13/2005 7:30 p -- 37.1 37.1 38.3 35.8 -- -- 0.0 0.0 --- 0.00 29.737
03/13/2005 8:00 p -- 34.9 34.9 35.9 33.5 -- -- 0.0 0.0 --- 0.00 29.747
03/13/2005 8:30 p -- 33.3 33.3 33.5 33.1 -- -- 0.0 0.0 --- 0.00 29.754
03/13/2005 9:00 p -- 32.8 32.8 33.5 32.4 -- -- 0.0 0.0 --- 0.00 29.769
03/13/2005 9:30 p -- 32.1 32.1 32.4 31.9 -- -- 0.0 0.0 --- 0.00 29.782
03/13/2005 10:00 p -- 32.1 32.1 32.3 31.9 -- -- 0.0 0.0 --- 0.00 29.795
03/13/2005 10:30 p -- 31.9 31.9 32.2 31.5 -- -- 0.0 0.0 --- 0.00 29.797
03/13/2005 11:00 p -- 31.2 31.2 31.6 30.4 -- -- 0.0 0.0 --- 0.00 29.791
03/13/2005 11:30 p -- 30.8 30.8 31.5 30.2 -- -- 0.0 0.0 --- 0.00 29.782
03/14/2005 12:00 a -- 31.0 31.0 31.4 30.8 -- -- 0.0 0.0 --- 0.00 29.790
03/14/2005 12:30 a -- 32.1 32.1 32.9 31.1 -- -- 0.0 2.0 SE 0.00 29.779
03/14/2005 1:00 a -- 32.6 32.6 33.5 31.9 -- -- 0.0 1.0 SE 0.00 29.785
03/14/2005 1:30 a -- 33.3 33.3 33.6 32.6 -- -- 0.0 1.0 SE 0.00 29.793
03/14/2005 2:00 a -- 33.1 33.1 33.5 32.7 -- -- 0.0 3.0 SSE 0.00 29.789
03/14/2005 2:30 a -- 32.8 32.8 33.1 32.5 -- -- 0.0 1.0 SSE 0.00 29.794
03/14/2005 3:00 a -- 32.3 32.3 32.7 31.8 -- -- 1.0 4.0 WSW 0.00 29.795
03/14/2005 3:30 a -- 31.6 31.6 31.9 31.2 -- -- 0.0 3.0 WSW 0.00 29.815
03/14/2005 4:00 a -- 31.0 31.0 31.4 30.7 -- -- 1.0 4.0 SW 0.00 29.830
03/14/2005 4:30 a -- 30.4 30.4 30.9 29.9 -- -- 1.0 4.0 SSW 0.00 29.834
03/14/2005 5:00 a -- 29.9 29.9 30.1 29.6 -- -- 0.0 2.0 SSW 0.00 29.836
03/14/2005 5:30 a -- 29.8 29.8 29.9 29.6 -- -- 1.0 3.0 SSE 0.00 29.846
03/14/2005 6:00 a -- 29.7 29.7 29.9 29.4 -- -- 1.0 7.0 SE 0.00 29.846
03/14/2005 6:30 a -- 29.8 29.8 30.3 29.5 -- -- 1.0 5.0 SE 0.00 29.847
03/14/2005 7:00 a -- 30.3 30.3 30.7 30.0 -- -- 1.0 6.0 SE 0.00 29.851
03/14/2005 7:30 a -- 30.0 30.0 30.4 29.5 -- -- 2.0 9.0 SE 0.00 29.849
03/14/2005 8:00 a -- 30.6 30.6 31.6 29.6 -- -- 2.0 8.0 SE 0.00 29.844
03/14/2005 8:30 a -- 32.2 32.2 33.7 31.3 -- -- 2.0 7.0 SSW 0.00 29.842
03/14/2005 9:00 a -- 33.8 33.8 34.5 33.3 -- -- 2.0 8.0 SE 0.00 29.844
03/14/2005 9:30 a -- 34.5 34.5 35.2 33.7 -- -- 3.0 10.0 SE 0.00 29.843
03/14/2005 10:00 a -- 35.4 35.4 36.4 34.3 -- -- 2.0 9.0 SSE 0.00 29.840
03/14/2005 10:30 a -- 36.7 36.7 38.1 35.7 -- -- 3.0 8.0 SE 0.00 29.831
03/14/2005 11:00 a -- 37.8 37.8 38.7 36.9 -- -- 2.0 9.0 SSW 0.00 29.825
03/14/2005 11:30 a -- 39.2 39.2 40.3 38.0 -- -- 3.0 12.0 SE 0.00 29.815
03/14/2005 12:00 p -- 39.8 39.8 41.3 38.5 -- -- 3.0 10.0 SE 0.00 29.809
03/14/2005 12:30 p -- 40.9 40.9 41.8 40.0 -- -- 3.0 11.0 SE 0.00 29.800
03/14/2005 1:00 p -- 41.5 41.5 42.7 40.2 -- -- 3.0 10.0 SE 0.00 29.785
03/14/2005 1:30 p -- 41.6 41.6 42.6 41.0 -- -- 3.0 9.0 SE 0.00 29.778
03/14/2005 2:00 p -- 41.9 41.9 42.6 41.1 -- -- 3.0 11.0 SE 0.00 29.769
03/14/2005 2:30 p -- 42.1 42.1 43.1 41.2 -- -- 3.0 11.0 SE 0.00 29.771
03/14/2005 3:00 p -- 41.7 41.7 42.7 40.7 -- -- 3.0 11.0 SE 0.00 29.774
03/14/2005 3:30 p -- 41.1 41.1 41.9 40.3 -- -- 3.0 10.0 SE 0.00 29.775
03/14/2005 4:00 p -- 40.8 40.8 41.3 40.0 -- -- 3.0 10.0 SE 0.00 29.781
03/14/2005 4:30 p -- 39.6 39.6 40.2 39.1 -- -- 3.0 13.0 SE 0.00 29.791
03/14/2005 5:00 p -- 38.5 38.5 39.4 37.8 -- -- 3.0 11.0 S 0.00 29.801
03/14/2005 5:30 p -- 37.5 37.5 37.9 37.1 -- -- 3.0 10.0 SE 0.00 29.805
03/14/2005 6:00 p -- 36.6 36.6 37.1 35.9 -- -- 3.0 9.0 SE 0.00 29.818
03/14/2005 6:30 p -- 35.5 35.5 36.0 35.3 -- -- 2.0 7.0 SE 0.00 29.828
03/14/2005 7:00 p -- 35.0 35.0 35.4 34.7 -- -- 2.0 7.0 SE 0.00 29.839
03/14/2005 7:30 p -- 34.5 34.5 34.8 34.2 -- -- 2.0 8.0 SE 0.00 29.850
03/14/2005 8:00 p -- 34.0 34.0 34.2 33.7 -- -- 3.0 8.0 SE 0.00 29.859
03/14/2005 8:30 p -- 33.2 33.2 33.9 32.6 -- -- 2.0 8.0 SE 0.00 29.857
03/14/2005 9:00 p -- 32.7 32.7 33.2 32.2 -- -- 2.0 9.0 SE 0.00 29.860
03/14/2005 9:30 p -- 32.2 32.2 32.8 31.3 -- -- 2.0 12.0 SE 0.00 29.871
03/14/2005 10:00 p -- 31.4 31.4 31.7 30.9 -- -- 1.0 4.0 SE 0.00 29.882
03/14/2005 10:30 p -- 31.3 31.3 31.7 30.9 -- -- 1.0 10.0 SE 0.00 29.894
03/14/2005 11:00 p -- 31.0 31.0 31.5 30.7 -- -- 1.0 9.0 SE 0.00 29.892
03/14/2005 11:30 p -- 30.7 30.7 31.2 30.5 -- -- 2.0 8.0 SE 0.00 29.884
03/15/2005 12:00 a -- 30.3 30.3 30.7 29.9 -- -- 1.0 10.0 SE 0.00 29.899
03/15/2005 12:30 a -- 29.7 29.7 30.4 29.2 -- -- 1.0 5.0 SE 0.00 29.899
03/15/2005 1:00 a -- 29.6 29.6 30.0 29.2 -- -- 1.0 4.0 SE 0.00 29.901
03/15/2005 1:30 a -- 29.1 29.1 29.8 28.4 -- -- 1.0 4.0 SE 0.00 29.896
03/15/2005 2:00 a -- 28.7 28.7 29.3 28.0 -- -- 0.0 5.0 SE 0.00 29.890
03/15/2005 2:30 a -- 27.7 27.7 28.1 27.4 -- -- 0.0 3.0 SE 0.00 29.891
03/15/2005 3:00 a -- 27.6 27.6 28.0 27.4 -- -- 0.0 6.0 N 0.00 29.891
03/15/2005 3:30 a -- 28.2 28.2 28.6 27.6 -- -- 1.0 6.0 SE 0.00 29.894
03/15/2005 4:00 a -- 27.7 27.7 28.2 27.3 -- -- 0.0 4.0 ESE 0.00 29.891
03/15/2005 4:30 a -- 27.7 27.7 28.4 27.2 -- -- 1.0 5.0 SE 0.00 29.896
03/15/2005 5:00 a -- 27.9 27.9 28.6 27.5 -- -- 1.0 5.0 SE 0.00 29.904
03/15/2005 5:30 a -- 28.0 28.0 28.5 27.6 -- -- 1.0 5.0 SE 0.00 29.906
03/15/2005 6:00 a -- 27.7 27.7 28.3 27.4 -- -- 2.0 7.0 SE 0.00 29.919
03/15/2005 6:30 a -- 27.9 27.9 28.4 27.5 -- -- 2.0 6.0 SE 0.00 29.925
03/15/2005 7:00 a -- 28.7 28.7 29.3 28.2 -- -- 2.0 7.0 SE 0.00 29.933
03/15/2005 7:30 a -- 30.3 30.3 31.1 29.3 -- -- 2.0 7.0 SE 0.00 29.938
03/15/2005 8:00 a -- 32.1 32.1 33.2 31.0 -- -- 3.0 9.0 SE 0.00 29.939
03/15/2005 8:30 a -- 33.7 33.7 34.4 32.5 -- -- 4.0 13.0 SE 0.00 29.934
03/15/2005 9:00 a -- 35.6 35.6 36.8 34.3 -- -- 3.0 13.0 SE 0.00 29.933
03/15/2005 9:30 a -- 37.1 37.1 37.9 36.0 -- -- 3.0 9.0 SE 0.00 29.930
03/15/2005 10:00 a -- 39.0 39.0 40.4 37.8 -- -- 3.0 12.0 SE 0.00 29.928
03/15/2005 10:30 a -- 40.6 40.6 42.2 39.4 -- -- 3.0 12.0 SE 0.00 29.927
03/15/2005 11:00 a -- 41.8 41.8 42.7 40.8 -- -- 4.0 16.0 SE 0.00 29.925
03/15/2005 11:30 a -- 43.0 43.0 44.4 41.8 -- -- 4.0 17.0 SE 0.00 29.920
03/15/2005 12:00 p -- 44.8 44.8 46.7 43.3 -- -- 4.0 15.0 SE 0.00 29.916
03/15/2005 12:30 p -- 45.3 42.8 46.6 44.4 -- -- 5.0 12.0 SE 0.00 29.910
03/15/2005 1:00 p -- 46.4 46.4 47.2 45.4 -- -- 4.0 13.0 SE 0.00 29.908
03/15/2005 1:30 p -- 46.6 46.6 47.4 46.0 -- -- 4.0 13.0 SE 0.00 29.890
03/15/2005 2:00 p -- 47.1 47.1 48.1 46.2 -- -- 3.0 13.0 SE 0.00 29.893
03/15/2005 2:30 p -- 47.1 47.1 47.9 46.5 -- -- 4.0 11.0 SE 0.00 29.883
03/15/2005 3:00 p -- 46.6 46.6 48.0 45.7 -- -- 4.0 14.0 SE 0.00 29.874
03/15/2005 3:30 p -- 46.1 46.1 46.6 45.6 -- -- 4.0 13.0 SE 0.00 29.865
03/15/2005 4:00 p -- 45.7 45.7 46.9 44.5 -- -- 3.0 12.0 SE 0.00 29.866
03/15/2005 4:30 p -- 44.2 44.2 44.5 44.0 -- -- 3.0 14.0 SSE 0.00 29.873
03/15/2005 5:00 p -- 43.7 43.7 44.3 43.0 -- -- 3.0 12.0 SE 0.00 29.883
03/15/2005 5:30 p -- 42.8 42.8 43.1 42.3 -- -- 3.0 11.0 SE 0.00 29.891
03/15/2005 6:00 p -- 41.7 41.7 42.3 41.3 -- -- 3.0 8.0 SE 0.00 29.909
03/15/2005 6:30 p -- 40.8 40.8 41.3 40.0 -- -- 2.0 10.0 SE 0.00 29.914
03/15/2005 7:00 p -- 40.2 40.2 40.6 39.8 -- -- 2.0 10.0 SE 0.00 29.916
03/15/2005 7:30 p -- 39.6 39.6 40.0 39.1 -- -- 2.0 8.0 SE 0.00 29.938
03/15/2005 8:00 p -- 38.8 38.8 39.4 38.3 -- -- 2.0 7.0 SE 0.00 29.954
03/15/2005 8:30 p -- 38.0 38.0 38.7 37.4 -- -- 1.0 4.0 SE 0.00 29.967
03/15/2005 9:00 p -- 37.7 37.7 38.2 37.3 -- -- 2.0 7.0 SE 0.00 29.964
03/15/2005 9:30 p -- 37.4 37.4 37.8 37.0 -- -- 1.0 8.0 SE 0.00 29.973
03/15/2005 10:00 p -- 37.2 37.2 37.5 36.7 -- -- 2.0 7.0 SE 0.00 29.961
03/15/2005 10:30 p -- 35.9 35.9 36.8 34.4 -- -- 0.0 3.0 SE 0.00 29.979
03/15/2005 11:00 p -- 34.5 34.5 35.4 33.9 -- -- 0.0 4.0 SE 0.00 29.976
03/15/2005 11:30 p -- 34.0 34.0 35.4 33.1 -- -- 0.0 4.0 SE 0.00 29.977
03/16/2005 12:00 a -- 33.7 33.7 34.5 32.9 -- -- 0.0 4.0 SE 0.00 29.967
03/16/2005 12:30 a -- 32.8 32.8 34.2 31.0 -- -- 0.0 3.0 SSE 0.00 29.973
03/16/2005 1:00 a -- 31.0 31.0 32.0 30.2 -- -- 0.0 1.0 SSE 0.00 29.977
03/16/2005 1:30 a -- 31.9 31.9 33.2 31.5 -- -- 0.0 4.0 SE 0.00 29.964
03/16/2005 2:00 a -- 33.3 33.3 33.8 32.6 -- -- 1.0 7.0 SE 0.00 29.968
03/16/2005 2:30 a -- 32.9 32.9 33.2 32.4 -- -- 2.0 6.0 SE 0.00 29.958
03/16/2005 3:00 a -- 32.5 32.5 33.0 32.2 -- -- 1.0 5.0 SE 0.00 29.954
03/16/2005 3:30 a -- 31.4 31.4 32.6 30.7 -- -- 0.0 3.0 SE 0.00 29.956
03/16/2005 4:00 a -- 30.6 30.6 31.4 30.2 -- -- 0.0 4.0 SE 0.00 29.968
03/16/2005 4:30 a -- 30.3 30.3 30.6 29.9 -- -- 0.0 2.0 SE 0.00 29.966
03/16/2005 5:00 a -- 29.6 29.6 30.1 29.0 -- -- 0.0 3.0 SE 0.00 29.968
03/16/2005 5:30 a -- 29.0 29.0 30.0 28.3 -- -- 0.0 1.0 SE 0.00 29.958
03/16/2005 6:00 a -- 29.5 29.5 30.5 28.4 -- -- 0.0 3.0 SE 0.00 29.968
03/16/2005 6:30 a -- 30.8 30.8 31.3 30.2 -- -- 1.0 5.0 SE 0.00 29.984
03/16/2005 7:00 a -- 31.5 31.5 32.5 30.8 -- -- 0.0 4.0 SE 0.00 29.977
03/16/2005 7:30 a -- 33.3 33.3 34.7 32.3 -- -- 1.0 6.0 SE 0.00 29.982
03/16/2005 8:00 a -- 35.4 35.4 36.2 34.6 -- -- 2.0 7.0 SE 0.00 29.976
03/16/2005 8:30 a -- 36.7 36.7 37.5 35.8 -- -- 3.0 10.0 SE 0.00 29.980
03/16/2005 9:00 a -- 38.2 38.2 39.5 37.2 -- -- 3.0 13.0 SE 0.00 29.974
03/16/2005 9:30 a -- 39.3 39.3 39.9 38.5 -- -- 3.0 12.0 SE 0.00 29.974
03/16/2005 10:00 a -- 40.7 40.7 41.9 39.4 -- -- 3.0 10.0 SE 0.00 29.968
03/16/2005 10:30 a -- 41.5 41.5 42.7 40.5 -- -- 4.0 12.0 SE 0.00 29.949
03/16/2005 11:00 a -- 43.1 43.1 44.6 41.7 -- -- 3.0 10.0 SE 0.00 29.945
03/16/2005 11:30 a -- 44.8 44.8 46.3 43.7 -- -- 3.0 11.0 SE 0.00 29.934
03/16/2005 12:00 p -- 45.8 45.8 47.5 44.0 -- -- 3.0 9.0 SE 0.00 29.925
03/16/2005 12:30 p -- 46.3 46.3 48.1 44.9 -- -- 3.0 12.0 SE 0.00 29.913
03/16/2005 1:00 p -- 47.7 47.7 48.9 46.6 -- -- 3.0 10.0 SE 0.00 29.896
03/16/2005 1:30 p -- 48.3 48.3 49.6 46.7 -- -- 2.0 10.0 SE 0.00 29.878
03/16/2005 2:00 p -- 48.1 48.1 49.1 47.2 -- -- 3.0 9.0 SE 0.00 29.881
03/16/2005 2:30 p -- 48.0 48.0 49.5 46.3 -- -- 3.0 10.0 SE 0.00 29.894
03/16/2005 3:00 p -- 47.2 47.2 48.1 46.4 -- -- 2.0 10.0 SE 0.00 29.880
03/16/2005 3:30 p -- 47.4 47.4 48.2 46.7 -- -- 3.0 10.0 SE 0.00 29.884
03/16/2005 4:00 p -- 46.8 46.8 47.4 45.9 -- -- 2.0 11.0 SE 0.00 29.887
03/16/2005 4:30 p -- 45.8 45.8 46.2 45.1 -- -- 2.0 7.0 SE 0.00 29.888
03/16/2005 5:00 p -- 44.3 44.3 45.0 43.7 -- -- 2.0 7.0 SE 0.00 29.908
03/16/2005 5:30 p -- 43.1 43.1 43.7 42.5 -- -- 2.0 8.0 SE 0.00 29.917
03/16/2005 6:00 p -- 41.7 41.7 42.5 41.0 -- -- 2.0 8.0 SE 0.00 29.922
03/16/2005 6:30 p -- 40.5 40.5 41.0 39.7 -- -- 1.0 5.0 SE 0.00 29.933
03/16/2005 7:00 p -- 39.4 39.4 39.8 39.1 -- -- 1.0 6.0 SE 0.00 29.930
03/16/2005 7:30 p -- 38.9 38.9 39.4 38.3 -- -- 1.0 6.0 SE 0.00 29.930
03/16/2005 8:00 p -- 37.2 37.2 38.6 36.0 -- -- 0.0 3.0 SE 0.00 29.943
03/16/2005 8:30 p -- 35.4 35.4 36.0 34.7 -- -- 0.0 0.0 --- 0.00 29.941
03/16/2005 9:00 p -- 34.7 34.7 35.5 33.9 -- -- 0.0 0.0 --- 0.00 29.938
03/16/2005 9:30 p -- 33.3 33.3 35.4 31.7 -- -- 0.0 0.0 --- 0.00 29.939
03/16/2005 10:00 p -- 31.5 31.5 32.0 30.8 -- -- 0.0 0.0 --- 0.00 29.936
03/16/2005 10:30 p -- 31.0 31.0 31.4 30.7 -- -- 0.0 0.0 --- 0.00 29.934
03/16/2005 11:00 p -- 32.1 32.1 32.8 31.3 -- -- 0.0 2.0 SE 0.00 29.937
03/16/2005 11:30 p -- 30.3 30.3 31.6 29.6 -- -- 0.0 0.0 --- 0.00 29.935
03/17/2005 12:00 a -- 29.5 29.5 30.1 29.1 -- -- 0.0 0.0 --- 0.00 29.931
03/17/2005 12:30 a -- 29.9 29.9 31.2 29.0 -- -- 0.0 0.0 --- 0.00 29.926
03/17/2005 1:00 a -- 29.3 29.3 31.3 28.7 -- -- 0.0 0.0 --- 0.00 29.928
03/17/2005 1:30 a -- 29.6 29.6 30.4 28.8 -- -- 0.0 0.0 --- 0.00 29.923
03/17/2005 2:00 a -- 28.7 28.7 29.9 28.0 -- -- 0.0 2.0 SE 0.00 29.923
03/17/2005 2:30 a -- 27.9 27.9 28.0 27.7 -- -- 0.0 0.0 --- 0.00 29.910
03/17/2005 3:00 a -- 27.2 27.2 27.9 26.8 -- -- 0.0 0.0 --- 0.00 29.910
03/17/2005 3:30 a -- 26.9 26.9 27.3 26.6 -- -- 0.0 0.0 --- 0.00 29.909
03/17/2005 4:00 a -- 27.3 27.3 27.5 26.8 -- -- 0.0 0.0 --- 0.00 29.913
03/17/2005 4:30 a -- 26.6 26.6 26.8 26.4 -- -- 0.0 0.0 --- 0.00 29.921
03/17/2005 5:00 a -- 27.0 27.0 27.6 26.6 -- -- 0.0 0.0 --- 0.00 29.918
03/17/2005 5:30 a -- 27.1 27.1 27.6 26.6 -- -- 0.0 0.0 --- 0.00 29.920
03/17/2005 6:00 a -- 27.5 27.5 27.8 26.9 -- -- 0.0 0.0 --- 0.00 29.936
03/17/2005 6:30 a -- 28.8 28.8 31.2 27.4 -- -- 0.0 0.0 --- 0.00 29.929
03/17/2005 7:00 a -- 29.9 29.9 31.2 28.8 -- -- 0.0 0.0 --- 0.00 29.927
03/17/2005 7:30 a -- 32.3 32.3 34.3 30.9 -- -- 0.0 0.0 --- 0.00 29.933
03/17/2005 8:00 a -- 35.9 35.9 37.4 34.2 -- -- 0.0 3.0 SE 0.00 29.931
03/17/2005 8:30 a -- 37.9 37.9 38.5 37.0 -- -- 1.0 3.0 SE 0.00 29.923
03/17/2005 9:00 a -- 39.1 39.1 39.7 38.3 -- -- 0.0 2.0 SE 0.00 29.923
03/17/2005 9:30 a -- 40.3 40.3 41.0 39.2 -- -- 1.0 3.0 SW 0.00 29.918
03/17/2005 10:00 a -- 42.3 42.3 43.5 40.8 -- -- 0.0 3.0 NNW 0.00 29.915
03/17/2005 10:30 a -- 44.0 44.0 46.0 42.6 -- -- 1.0 4.0 N 0.00 29.909
03/17/2005 11:00 a -- 45.9 45.9 47.5 44.4 -- -- 0.0 4.0 N 0.00 29.908
03/17/2005 11:30 a -- 46.2 46.2 47.8 44.7 -- -- 1.0 5.0 N 0.00 29.904
03/17/2005 12:00 p -- 48.6 48.6 50.8 47.0 -- -- 1.0 6.0 SE 0.00 29.907
03/17/2005 12:30 p -- 48.0 48.0 49.0 46.7 -- -- 1.0 4.0 SE 0.00 29.879
03/17/2005 1:00 p -- 49.4 49.4 50.4 47.9 -- -- 1.0 3.0 SSE 0.00 29.878
03/17/2005 1:30 p -- 49.4 49.4 50.9 47.8 -- -- 1.0 3.0 SSE 0.00 29.856
03/17/2005 2:00 p -- 49.2 49.2 50.4 48.3 -- -- 1.0 5.0 SE 0.00 29.838
03/17/2005 2:30 p -- 49.5 49.5 50.4 48.7 -- -- 1.0 3.0 SSE 0.00 29.822
03/17/2005 3:00 p -- 49.3 49.3 50.3 48.2 -- -- 1.0 4.0 SE 0.00 29.806
03/17/2005 3:30 p -- 48.9 48.9 49.5 48.3 -- -- 0.0 4.0 N 0.00 29.801
03/17/2005 4:00 p -- 49.0 49.0 49.3 48.6 -- -- 1.0 4.0 S 0.00 29.807
03/17/2005 4:30 p -- 48.7 48.7 49.1 48.1 -- -- 0.0 3.0 SSW 0.00 29.806
03/17/2005 5:00 p -- 47.5 47.5 48.2 46.7 -- -- 0.0 3.0 WSW 0.00 29.814
03/17/2005 5:30 p -- 45.8 45.8 46.7 44.9 -- -- 0.0 2.0 N 0.00 29.826
03/17/2005 6:00 p -- 43.8 43.8 45.0 42.9 -- -- 0.0 1.0 N 0.00 29.843
03/17/2005 6:30 p -- 42.2 42.2 43.0 41.1 -- -- 0.0 0.0 --- 0.00 29.846
03/17/2005 7:00 p -- 40.5 40.5 41.1 39.9 -- -- 0.0 0.0 --- 0.00 29.844
03/17/2005 7:30 p -- 39.5 39.5 39.9 39.0 -- -- 0.0 0.0 --- 0.00 29.845
03/17/2005 8:00 p -- 38.3 38.3 39.1 37.5 -- -- 0.0 0.0 --- 0.00 29.856
03/17/2005 8:30 p -- 37.1 37.1 37.6 36.8 -- -- 0.0 0.0 --- 0.00 29.854
03/17/2005 9:00 p -- 36.2 36.2 37.2 35.3 -- -- 0.0 0.0 --- 0.00 29.862
03/17/2005 9:30 p -- 34.7 34.7 35.6 33.7 -- -- 0.0 0.0 --- 0.00 29.859
03/17/2005 10:00 p -- 33.2 33.2 33.6 32.6 -- -- 0.0 0.0 --- 0.00 29.856
03/17/2005 10:30 p -- 31.9 31.9 32.6 31.5 -- -- 0.0 0.0 --- 0.00 29.854
03/17/2005 11:00 p -- 31.2 31.2 31.7 30.6 -- -- 0.0 0.0 --- 0.00 29.850
03/17/2005 11:30 p -- 30.7 30.7 31.0 30.3 -- -- 0.0 0.0 --- 0.00 29.847
03/18/2005 12:00 a -- 30.2 30.2 30.4 29.9 -- -- 0.0 0.0 --- 0.00 29.845
03/18/2005 12:30 a -- 30.1 30.1 30.6 29.2 -- -- 0.0 0.0 --- 0.00 29.847
03/18/2005 1:00 a -- 29.2 29.2 29.3 28.9 -- -- 0.0 0.0 --- 0.00 29.849
03/18/2005 1:30 a -- 28.9 28.9 29.5 28.6 -- -- 0.0 0.0 --- 0.00 29.846
03/18/2005 2:00 a -- 29.9 29.9 30.5 29.5 -- -- 0.0 0.0 --- 0.00 29.836
03/18/2005 2:30 a -- 29.2 29.2 29.8 28.8 -- -- 0.0 0.0 --- 0.00 29.841
03/18/2005 3:00 a -- 29.0 29.0 29.2 28.7 -- -- 0.0 0.0 --- 0.00 29.846
03/18/2005 3:30 a -- 29.2 29.2 29.6 29.0 -- -- 0.0 0.0 --- 0.00 29.847
03/18/2005 4:00 a -- 30.6 30.6 31.3 29.6 -- -- 0.0 0.0 --- 0.00 29.854
03/18/2005 4:30 a -- 30.9 30.9 31.3 30.5 -- -- 0.0 0.0 --- 0.00 29.858
03/18/2005 5:00 a -- 30.8 30.8 31.1 30.5 -- -- 0.0 0.0 --- 0.00 29.866
03/18/2005 5:30 a -- 30.9 30.9 31.6 30.7 -- -- 0.0 0.0 --- 0.00 29.874
03/18/2005 6:00 a -- 30.8 30.8 32.1 30.3 -- -- 0.0 0.0 --- 0.00 29.882
03/18/2005 6:30 a -- 30.9 30.9 32.6 30.3 -- -- 0.0 2.0 N 0.00 29.882
03/18/2005 7:00 a -- 35.2 35.2 36.4 32.5 -- -- 0.0 4.0 SE 0.00 29.892
03/18/2005 7:30 a -- 37.5 37.5